TAM8146 SBGR-LPPT
Flight info
| Callsign | TAM8146 |
|---|---|
| Flight time | 8h 37m |
| Altitude | 33000 |
| Route | NUXEL UZ23 ILPIR UZ72 EDNES UN866 DORMU/N0492F350 UN866 DEKON/N0487F360 UN866 AMDOL/N0482F370 UN866 TENPA N866 GOMER/N0472F380 N866 KONBA UN866 BEXAL DCT LUVUP |
| Aircraft | B77W/H-SDE1E2E3FGHIJ2J3J4J5M1RWXY/LB1D1 |
Departure
| Time | 2026-05-04 22:06 |
|---|---|
| Airport | São Paulo/Guarulhos–Governor André Franco Montoro International Airport (SBGR) |
Arrival
| Time | 2026-05-05 06:43 |
|---|---|
| Airport | Lisbon Humberto Delgado Airport (LPPT) |
| Time | Latitude | Longitude | Altitude | Speed | Heading |
|---|---|---|---|---|---|
| 2026-05-04 21:11 | -23.42502 | -46.47332 | 2472 ft | 0 kts | 253° |
| 2026-05-04 21:24 | -23.42502 | -46.47331 | 2469 ft | 0 kts | 253° |
| 2026-05-04 21:27 | -23.42501 | -46.47331 | 2469 ft | 0 kts | 253° |
| 2026-05-04 21:50 | -23.42501 | -46.47330 | 2469 ft | 0 kts | 253° |
| 2026-05-04 21:54 | -23.42495 | -46.47307 | 2472 ft | 4 kts | 254° |
| 2026-05-04 21:54 | -23.42488 | -46.47279 | 2472 ft | 4 kts | 254° |
| 2026-05-04 21:55 | -23.42481 | -46.47255 | 2469 ft | 4 kts | 232° |
| 2026-05-04 21:55 | -23.42461 | -46.47243 | 2469 ft | 4 kts | 174° |
| 2026-05-04 21:55 | -23.42436 | -46.47249 | 2471 ft | 2 kts | 163° |
| 2026-05-04 21:55 | -23.42429 | -46.47251 | 2471 ft | 1 kts | 163° |
| 2026-05-04 21:58 | -23.42432 | -46.47250 | 2472 ft | 2 kts | 163° |
| 2026-05-04 21:58 | -23.42468 | -46.47239 | 2474 ft | 8 kts | 163° |
| 2026-05-04 21:58 | -23.42518 | -46.47223 | 2473 ft | 8 kts | 163° |
| 2026-05-04 21:58 | -23.42569 | -46.47207 | 2471 ft | 8 kts | 163° |
| 2026-05-04 21:59 | -23.42620 | -46.47191 | 2470 ft | 8 kts | 163° |
| 2026-05-04 21:59 | -23.42669 | -46.47175 | 2475 ft | 8 kts | 163° |
| 2026-05-04 21:59 | -23.42720 | -46.47159 | 2473 ft | 8 kts | 163° |
| 2026-05-04 21:59 | -23.42784 | -46.47139 | 2473 ft | 12 kts | 163° |
| 2026-05-04 22:00 | -23.42882 | -46.47109 | 2471 ft | 11 kts | 171° |
| 2026-05-04 22:00 | -23.42906 | -46.47120 | 2471 ft | 6 kts | 211° |
| 2026-05-04 22:00 | -23.42950 | -46.47211 | 2474 ft | 22 kts | 252° |
| 2026-05-04 22:00 | -23.42993 | -46.47362 | 2473 ft | 19 kts | 254° |
| 2026-05-04 22:01 | -23.43026 | -46.47488 | 2472 ft | 14 kts | 253° |
| 2026-05-04 22:01 | -23.43053 | -46.47588 | 2468 ft | 14 kts | 253° |
| 2026-05-04 22:01 | -23.43080 | -46.47688 | 2473 ft | 14 kts | 253° |
| 2026-05-04 22:01 | -23.43107 | -46.47788 | 2473 ft | 14 kts | 253° |
| 2026-05-04 22:02 | -23.43134 | -46.47889 | 2472 ft | 14 kts | 254° |
| 2026-05-04 22:02 | -23.43161 | -46.47988 | 2472 ft | 14 kts | 253° |
| 2026-05-04 22:02 | -23.43188 | -46.48088 | 2474 ft | 14 kts | 253° |
| 2026-05-04 22:02 | -23.43215 | -46.48188 | 2479 ft | 14 kts | 253° |
| 2026-05-04 22:03 | -23.43244 | -46.48289 | 2477 ft | 14 kts | 246° |
| 2026-05-04 22:03 | -23.43280 | -46.48335 | 2477 ft | 0 kts | 215° |
| 2026-05-04 22:04 | -23.43281 | -46.48335 | 2478 ft | 0 kts | 213° |
| 2026-05-04 22:04 | -23.43309 | -46.48346 | 2476 ft | 10 kts | 192° |
| 2026-05-04 22:04 | -23.43387 | -46.48322 | 2471 ft | 12 kts | 140° |
| 2026-05-04 22:04 | -23.43404 | -46.48264 | 2466 ft | 8 kts | 85° |
| 2026-05-04 22:05 | -23.43389 | -46.48203 | 2470 ft | 8 kts | 76° |
| 2026-05-04 22:05 | -23.43376 | -46.48142 | 2468 ft | 8 kts | 77° |
| 2026-05-04 22:05 | -23.43355 | -46.48063 | 2471 ft | 20 kts | 73° |
| 2026-05-04 22:05 | -23.43257 | -46.47699 | 2468 ft | 85 kts | 73° |
| 2026-05-04 22:06 | -23.43027 | -46.46848 | 2474 ft | 148 kts | 73° |
| 2026-05-04 22:06 | -23.42681 | -46.45581 | 2469 ft | 198 kts | 74° |
| 2026-05-04 22:06 | -23.42278 | -46.44073 | 2816 ft | 205 kts | 74° |
| 2026-05-04 22:06 | -23.41869 | -46.42628 | 3575 ft | 196 kts | 73° |
| 2026-05-04 22:07 | -23.41446 | -46.41203 | 4069 ft | 201 kts | 71° |
| 2026-05-04 22:07 | -23.40999 | -46.39706 | 4261 ft | 218 kts | 71° |
| 2026-05-04 22:07 | -23.40509 | -46.38066 | 4442 ft | 238 kts | 71° |
| 2026-05-04 22:07 | -23.39964 | -46.36269 | 4590 ft | 259 kts | 67° |
| 2026-05-04 22:08 | -23.39089 | -46.34513 | 4986 ft | 268 kts | 53° |
| 2026-05-04 22:08 | -23.38023 | -46.32806 | 5501 ft | 277 kts | 54° |
| 2026-05-04 22:08 | -23.36962 | -46.31026 | 6098 ft | 283 kts | 55° |
| 2026-05-04 22:08 | -23.35894 | -46.29204 | 6710 ft | 287 kts | 55° |
| 2026-05-04 22:09 | -23.34838 | -46.27386 | 7327 ft | 289 kts | 55° |
| 2026-05-04 22:09 | -23.33760 | -46.25526 | 7951 ft | 292 kts | 56° |
| 2026-05-04 22:09 | -23.32671 | -46.23649 | 8579 ft | 294 kts | 56° |
| 2026-05-04 22:09 | -23.31572 | -46.21754 | 9162 ft | 298 kts | 56° |
| 2026-05-04 22:10 | -23.30461 | -46.19838 | 9801 ft | 300 kts | 56° |
| 2026-05-04 22:10 | -23.29342 | -46.17909 | 10372 ft | 304 kts | 56° |
| 2026-05-04 22:10 | -23.28183 | -46.15913 | 10622 ft | 322 kts | 56° |
| 2026-05-04 22:10 | -23.26948 | -46.13788 | 10770 ft | 343 kts | 57° |
| 2026-05-04 22:11 | -23.25636 | -46.11528 | 10921 ft | 364 kts | 57° |
| 2026-05-04 22:11 | -23.24244 | -46.09131 | 11161 ft | 382 kts | 57° |
| 2026-05-04 22:11 | -23.22805 | -46.06659 | 11645 ft | 391 kts | 57° |
| 2026-05-04 22:11 | -23.21104 | -46.04373 | 12065 ft | 395 kts | 38° |
| 2026-05-04 22:12 | -23.18720 | -46.02898 | 12735 ft | 395 kts | 18° |
| 2026-05-04 22:12 | -23.16132 | -46.01969 | 13337 ft | 401 kts | 17° |
| 2026-05-04 22:12 | -23.13466 | -46.00989 | 13996 ft | 408 kts | 18° |
| 2026-05-04 22:12 | -23.10729 | -46.00182 | 14582 ft | 409 kts | 8° |
| 2026-05-04 22:13 | -23.07894 | -45.99787 | 15209 ft | 413 kts | 3° |
| 2026-05-04 22:13 | -23.05017 | -45.99539 | 15941 ft | 415 kts | 2° |
| 2026-05-04 22:13 | -23.02126 | -45.99291 | 16657 ft | 418 kts | 2° |
| 2026-05-04 22:13 | -22.99213 | -45.99000 | 17346 ft | 422 kts | 2° |
| 2026-05-04 22:14 | -22.96268 | -45.98664 | 17966 ft | 428 kts | 3° |
| 2026-05-04 22:14 | -22.93293 | -45.98304 | 18574 ft | 432 kts | 3° |
| 2026-05-04 22:14 | -22.90298 | -45.97936 | 19116 ft | 435 kts | 3° |
| 2026-05-04 22:14 | -22.87276 | -45.97513 | 19649 ft | 441 kts | 6° |
| 2026-05-04 22:15 | -22.84247 | -45.96837 | 20128 ft | 448 kts | 10° |
| 2026-05-04 22:15 | -22.81198 | -45.96014 | 20638 ft | 453 kts | 11° |
| 2026-05-04 22:15 | -22.78133 | -45.95145 | 21186 ft | 457 kts | 11° |
| 2026-05-04 22:15 | -22.75044 | -45.94280 | 21746 ft | 460 kts | 11° |
| 2026-05-04 22:16 | -22.71931 | -45.93438 | 22264 ft | 464 kts | 11° |
| 2026-05-04 22:16 | -22.68779 | -45.92604 | 22765 ft | 468 kts | 10° |
| 2026-05-04 22:16 | -22.65644 | -45.91787 | 23245 ft | 472 kts | 10° |
| 2026-05-04 22:16 | -22.62430 | -45.90958 | 23720 ft | 475 kts | 10° |
| 2026-05-04 22:17 | -22.59203 | -45.90129 | 24095 ft | 479 kts | 10° |
| 2026-05-04 22:17 | -22.55940 | -45.89292 | 24482 ft | 483 kts | 10° |
| 2026-05-04 22:17 | -22.52661 | -45.88452 | 24886 ft | 486 kts | 10° |
| 2026-05-04 22:17 | -22.49350 | -45.87603 | 25286 ft | 489 kts | 9° |
| 2026-05-04 22:18 | -22.46030 | -45.86753 | 25683 ft | 492 kts | 9° |
| 2026-05-04 22:18 | -22.42682 | -45.85893 | 26077 ft | 496 kts | 9° |
| 2026-05-04 22:18 | -22.39319 | -45.85029 | 26454 ft | 499 kts | 9° |
| 2026-05-04 22:18 | -22.35928 | -45.84157 | 26848 ft | 502 kts | 9° |
| 2026-05-04 22:19 | -22.32513 | -45.83279 | 27171 ft | 506 kts | 9° |
| 2026-05-04 22:19 | -22.29136 | -45.82322 | 27453 ft | 512 kts | 15° |
| 2026-05-04 22:19 | -22.25923 | -45.80573 | 27702 ft | 525 kts | 34° |
| 2026-05-04 22:19 | -22.23081 | -45.78093 | 28012 ft | 528 kts | 38° |
| 2026-05-04 22:20 | -22.20268 | -45.75521 | 28307 ft | 532 kts | 38° |
| 2026-05-04 22:20 | -22.17393 | -45.72905 | 28636 ft | 535 kts | 37° |
| 2026-05-04 22:20 | -22.14560 | -45.70370 | 28968 ft | 537 kts | 37° |
| 2026-05-04 22:20 | -22.11616 | -45.67780 | 29277 ft | 540 kts | 36° |
| 2026-05-04 22:21 | -22.08728 | -45.65272 | 29589 ft | 542 kts | 36° |
| 2026-05-04 22:21 | -22.05774 | -45.62727 | 29952 ft | 543 kts | 36° |
| 2026-05-04 22:21 | -22.02819 | -45.60190 | 30311 ft | 544 kts | 36° |
| 2026-05-04 22:21 | -21.99854 | -45.57646 | 30657 ft | 544 kts | 36° |
| 2026-05-04 22:22 | -21.96907 | -45.55115 | 31140 ft | 540 kts | 35° |
| 2026-05-04 22:22 | -21.93972 | -45.52595 | 31604 ft | 538 kts | 35° |
| 2026-05-04 22:22 | -21.91056 | -45.50087 | 31988 ft | 537 kts | 35° |
| 2026-05-04 22:22 | -21.88136 | -45.47577 | 32333 ft | 536 kts | 35° |
| 2026-05-04 22:23 | -21.85217 | -45.45070 | 32681 ft | 535 kts | 35° |
| 2026-05-04 22:23 | -21.82305 | -45.42570 | 33055 ft | 534 kts | 35° |
| 2026-05-04 22:23 | -21.79389 | -45.40070 | 33153 ft | 538 kts | 35° |
| 2026-05-04 22:24 | -21.73566 | -45.35079 | 33174 ft | 536 kts | 35° |
| 2026-05-04 22:24 | -21.67768 | -45.30112 | 33188 ft | 531 kts | 35° |
| 2026-05-04 22:25 | -21.62926 | -45.25970 | 33186 ft | 530 kts | 35° |
| 2026-05-04 22:25 | -21.57190 | -45.21068 | 33183 ft | 530 kts | 35° |
| 2026-05-04 22:26 | -21.51414 | -45.16140 | 33181 ft | 531 kts | 34° |
| 2026-05-04 22:26 | -21.45625 | -45.11202 | 33201 ft | 532 kts | 34° |
| 2026-05-04 22:27 | -21.39817 | -45.06253 | 33182 ft | 533 kts | 34° |
| 2026-05-04 22:27 | -21.34002 | -45.01304 | 33194 ft | 534 kts | 34° |
| 2026-05-04 22:28 | -21.28180 | -44.96353 | 33182 ft | 534 kts | 34° |
| 2026-05-04 22:28 | -21.22352 | -44.91401 | 33189 ft | 534 kts | 34° |
| 2026-05-04 22:29 | -21.16531 | -44.86459 | 33178 ft | 533 kts | 34° |
| 2026-05-04 22:29 | -21.10758 | -44.81537 | 33191 ft | 533 kts | 34° |
| 2026-05-04 22:30 | -21.04952 | -44.76590 | 33202 ft | 532 kts | 34° |
| 2026-05-04 22:30 | -20.99012 | -44.71914 | 33203 ft | 529 kts | 30° |
| 2026-05-04 22:31 | -20.92958 | -44.67418 | 33205 ft | 529 kts | 31° |
| 2026-05-04 22:31 | -20.86947 | -44.62869 | 33208 ft | 530 kts | 31° |
| 2026-05-04 22:32 | -20.80946 | -44.58280 | 33219 ft | 530 kts | 31° |
| 2026-05-04 22:32 | -20.74943 | -44.53704 | 33210 ft | 529 kts | 31° |
| 2026-05-04 22:33 | -20.68941 | -44.49136 | 33212 ft | 529 kts | 31° |
| 2026-05-04 22:33 | -20.62941 | -44.44569 | 33223 ft | 530 kts | 31° |
| 2026-05-04 22:34 | -20.56978 | -44.40032 | 33208 ft | 529 kts | 31° |
| 2026-05-04 22:34 | -20.50982 | -44.35478 | 33227 ft | 529 kts | 31° |
| 2026-05-04 22:35 | -20.44989 | -44.30927 | 33210 ft | 529 kts | 31° |
| 2026-05-04 22:35 | -20.39034 | -44.26308 | 33210 ft | 529 kts | 32° |
| 2026-05-04 22:36 | -20.33146 | -44.21594 | 33224 ft | 529 kts | 32° |
| 2026-05-04 22:36 | -20.27257 | -44.16895 | 33229 ft | 528 kts | 32° |
| 2026-05-04 22:37 | -20.21360 | -44.12221 | 33216 ft | 528 kts | 32° |
| 2026-05-04 22:37 | -20.15508 | -44.07591 | 33223 ft | 527 kts | 32° |
| 2026-05-04 22:38 | -20.09618 | -44.02933 | 33219 ft | 527 kts | 32° |
| 2026-05-04 22:38 | -20.03726 | -43.98298 | 33229 ft | 527 kts | 32° |
| 2026-05-04 22:39 | -19.97823 | -43.93676 | 33220 ft | 526 kts | 32° |
| 2026-05-04 22:39 | -19.91936 | -43.89065 | 33232 ft | 526 kts | 32° |
| 2026-05-04 22:40 | -19.86044 | -43.84450 | 33243 ft | 526 kts | 32° |
| 2026-05-04 22:40 | -19.80073 | -43.79969 | 33228 ft | 524 kts | 30° |
| 2026-05-04 22:41 | -19.74020 | -43.75658 | 33236 ft | 524 kts | 29° |
| 2026-05-04 22:41 | -19.67972 | -43.71329 | 33227 ft | 524 kts | 30° |
| 2026-05-04 22:42 | -19.61947 | -43.66973 | 33221 ft | 524 kts | 30° |
| 2026-05-04 22:42 | -19.55930 | -43.62617 | 33225 ft | 523 kts | 30° |
| 2026-05-04 22:43 | -19.49914 | -43.58268 | 33225 ft | 523 kts | 30° |
| 2026-05-04 22:43 | -19.43908 | -43.53932 | 33227 ft | 522 kts | 30° |
| 2026-05-04 22:44 | -19.37904 | -43.49604 | 33209 ft | 521 kts | 30° |
| 2026-05-04 22:44 | -19.31821 | -43.45492 | 33220 ft | 516 kts | 23° |
| 2026-05-04 22:45 | -19.25276 | -43.42538 | 33226 ft | 507 kts | 12° |
| 2026-05-04 22:45 | -19.15239 | -43.39136 | 33218 ft | 507 kts | 13° |
| 2026-05-04 22:46 | -19.08532 | -43.36806 | 33211 ft | 508 kts | 13° |
| 2026-05-04 22:46 | -19.01825 | -43.34456 | 33213 ft | 508 kts | 13° |
| 2026-05-04 22:47 | -18.95114 | -43.32108 | 33219 ft | 508 kts | 13° |
| 2026-05-04 22:47 | -18.88409 | -43.29768 | 33216 ft | 508 kts | 13° |
| 2026-05-04 22:48 | -18.81693 | -43.27432 | 33211 ft | 508 kts | 13° |
| 2026-05-04 22:48 | -18.74975 | -43.25111 | 33206 ft | 508 kts | 13° |
| 2026-05-04 22:49 | -18.68259 | -43.22787 | 33214 ft | 508 kts | 13° |
| 2026-05-04 22:49 | -18.61575 | -43.20558 | 33219 ft | 507 kts | 12° |
| 2026-05-04 22:50 | -18.54794 | -43.18351 | 33214 ft | 507 kts | 12° |
| 2026-05-04 22:50 | -18.48102 | -43.16158 | 33224 ft | 506 kts | 13° |
| 2026-05-04 22:51 | -18.41376 | -43.13947 | 33218 ft | 506 kts | 13° |
| 2026-05-04 22:51 | -18.34697 | -43.11555 | 33228 ft | 508 kts | 16° |
| 2026-05-04 22:52 | -18.28084 | -43.08929 | 33213 ft | 508 kts | 17° |
| 2026-05-04 22:52 | -18.21481 | -43.06296 | 33228 ft | 507 kts | 17° |
| 2026-05-04 22:53 | -18.14868 | -43.03683 | 33222 ft | 507 kts | 16° |
| 2026-05-04 22:53 | -18.08287 | -43.01101 | 33208 ft | 507 kts | 16° |
| 2026-05-04 22:54 | -18.01677 | -42.98509 | 33216 ft | 507 kts | 16° |
| 2026-05-04 22:54 | -17.95074 | -42.95919 | 33217 ft | 506 kts | 16° |
| 2026-05-04 22:55 | -17.88469 | -42.93332 | 33220 ft | 507 kts | 16° |
| 2026-05-04 22:55 | -17.81859 | -42.90745 | 33217 ft | 507 kts | 16° |
| 2026-05-04 22:56 | -17.75248 | -42.88158 | 33213 ft | 507 kts | 16° |
| 2026-05-04 22:56 | -17.68624 | -42.85568 | 33219 ft | 507 kts | 16° |
| 2026-05-04 22:57 | -17.62006 | -42.82983 | 33200 ft | 508 kts | 17° |
| 2026-05-04 22:57 | -17.55423 | -42.80413 | 33208 ft | 507 kts | 16° |
| 2026-05-04 22:58 | -17.48798 | -42.77829 | 33206 ft | 507 kts | 16° |
| 2026-05-04 22:58 | -17.42162 | -42.75250 | 33477 ft | 509 kts | 16° |
| 2026-05-04 22:59 | -17.38837 | -42.73960 | 33849 ft | 507 kts | 16° |
| 2026-05-04 22:59 | -17.35531 | -42.72677 | 34233 ft | 505 kts | 16° |
| 2026-05-04 22:59 | -17.32240 | -42.71401 | 34520 ft | 504 kts | 16° |
| 2026-05-04 22:59 | -17.28988 | -42.70141 | 34744 ft | 504 kts | 16° |
| 2026-05-04 23:00 | -17.25696 | -42.68866 | 34968 ft | 505 kts | 16° |
| 2026-05-04 23:00 | -17.22396 | -42.67588 | 35114 ft | 506 kts | 16° |
| 2026-05-04 23:00 | -17.15765 | -42.65021 | 35179 ft | 508 kts | 16° |
| 2026-05-04 23:01 | -17.09150 | -42.62461 | 35197 ft | 506 kts | 16° |
| 2026-05-04 23:01 | -17.02554 | -42.59910 | 35195 ft | 505 kts | 16° |
| 2026-05-04 23:02 | -16.95972 | -42.57364 | 35204 ft | 503 kts | 16° |
| 2026-05-04 23:02 | -16.89406 | -42.54832 | 35187 ft | 503 kts | 16° |
| 2026-05-04 23:03 | -16.82871 | -42.52311 | 35196 ft | 504 kts | 16° |
| 2026-05-04 23:03 | -16.76281 | -42.49771 | 35197 ft | 505 kts | 16° |
| 2026-05-04 23:04 | -16.69671 | -42.47223 | 35191 ft | 506 kts | 16° |
| 2026-05-04 23:04 | -16.63095 | -42.44692 | 35196 ft | 506 kts | 16° |
| 2026-05-04 23:05 | -16.56474 | -42.42161 | 35191 ft | 507 kts | 16° |
| 2026-05-04 23:05 | -16.49849 | -42.39614 | 35200 ft | 507 kts | 16° |
| 2026-05-04 23:06 | -16.43231 | -42.37058 | 35186 ft | 507 kts | 16° |
| 2026-05-04 23:06 | -16.36612 | -42.34506 | 35195 ft | 507 kts | 16° |
| 2026-05-04 23:07 | -16.29989 | -42.31957 | 35200 ft | 507 kts | 16° |
| 2026-05-04 23:07 | -16.23367 | -42.29409 | 35199 ft | 507 kts | 16° |
| 2026-05-04 23:08 | -16.16754 | -42.26866 | 35189 ft | 507 kts | 17° |
| 2026-05-04 23:08 | -16.10298 | -42.23814 | 35205 ft | 510 kts | 22° |
| 2026-05-04 23:09 | -16.03929 | -42.20528 | 35202 ft | 511 kts | 23° |
| 2026-05-04 23:09 | -15.97592 | -42.17273 | 35190 ft | 511 kts | 22° |
| 2026-05-04 23:10 | -15.91199 | -42.14022 | 35215 ft | 511 kts | 22° |
| 2026-05-04 23:10 | -15.84805 | -42.10786 | 35200 ft | 511 kts | 22° |
| 2026-05-04 23:11 | -15.78402 | -42.07549 | 35196 ft | 511 kts | 22° |
| 2026-05-04 23:11 | -15.72001 | -42.04314 | 35200 ft | 511 kts | 22° |
| 2026-05-04 23:12 | -15.65632 | -42.01096 | 35201 ft | 512 kts | 22° |
| 2026-05-04 23:12 | -15.60263 | -41.98385 | 35210 ft | 512 kts | 22° |
| 2026-05-04 23:13 | -15.53898 | -41.95173 | 35210 ft | 512 kts | 22° |
| 2026-05-04 23:13 | -15.47492 | -41.91942 | 35189 ft | 512 kts | 23° |
| 2026-05-04 23:14 | -15.41085 | -41.88714 | 35204 ft | 512 kts | 23° |
| 2026-05-04 23:14 | -15.34670 | -41.85483 | 35196 ft | 512 kts | 23° |
| 2026-05-04 23:15 | -15.28252 | -41.82253 | 35183 ft | 512 kts | 23° |
| 2026-05-04 23:15 | -15.21847 | -41.79032 | 35189 ft | 512 kts | 23° |
| 2026-05-04 23:16 | -15.15438 | -41.75811 | 35196 ft | 512 kts | 23° |
| 2026-05-04 23:16 | -15.09015 | -41.72586 | 35180 ft | 512 kts | 23° |
| 2026-05-04 23:17 | -15.02648 | -41.69390 | 35170 ft | 512 kts | 23° |
| 2026-05-04 23:17 | -14.96231 | -41.66171 | 35173 ft | 512 kts | 23° |
| 2026-05-04 23:18 | -14.89820 | -41.62958 | 35174 ft | 512 kts | 23° |
| 2026-05-04 23:18 | -14.83413 | -41.59749 | 35162 ft | 512 kts | 23° |
| 2026-05-04 23:19 | -14.77001 | -41.56540 | 35157 ft | 512 kts | 24° |
| 2026-05-04 23:19 | -14.70592 | -41.53334 | 35164 ft | 512 kts | 24° |
| 2026-05-04 23:20 | -14.64181 | -41.50129 | 35153 ft | 512 kts | 24° |
| 2026-05-04 23:20 | -14.57774 | -41.46928 | 35148 ft | 511 kts | 24° |
| 2026-05-04 23:21 | -14.51363 | -41.43727 | 35144 ft | 511 kts | 24° |
| 2026-05-04 23:21 | -14.44960 | -41.40533 | 35141 ft | 511 kts | 24° |
| 2026-05-04 23:22 | -14.38559 | -41.37342 | 35142 ft | 511 kts | 24° |
| 2026-05-04 23:22 | -14.32159 | -41.34152 | 35140 ft | 511 kts | 24° |
| 2026-05-04 23:23 | -14.25795 | -41.30984 | 35143 ft | 511 kts | 24° |
| 2026-05-04 23:23 | -14.19352 | -41.27776 | 35130 ft | 511 kts | 24° |
| 2026-05-04 23:24 | -14.12985 | -41.24610 | 35137 ft | 511 kts | 24° |
| 2026-05-04 23:24 | -14.06587 | -41.21430 | 35131 ft | 511 kts | 24° |
| 2026-05-04 23:25 | -14.00173 | -41.18244 | 35137 ft | 510 kts | 24° |
| 2026-05-04 23:25 | -13.93777 | -41.15067 | 35137 ft | 511 kts | 24° |
| 2026-05-04 23:26 | -13.87376 | -41.11891 | 35137 ft | 511 kts | 24° |
| 2026-05-04 23:26 | -13.80966 | -41.08722 | 35132 ft | 511 kts | 24° |
| 2026-05-04 23:27 | -13.74561 | -41.05560 | 35134 ft | 510 kts | 24° |
| 2026-05-04 23:27 | -13.68158 | -41.02399 | 35132 ft | 511 kts | 24° |
| 2026-05-04 23:28 | -13.61794 | -40.99258 | 35138 ft | 511 kts | 24° |
| 2026-05-04 23:28 | -13.55391 | -40.96099 | 35135 ft | 511 kts | 24° |
| 2026-05-04 23:29 | -13.48983 | -40.92940 | 35136 ft | 511 kts | 24° |
| 2026-05-04 23:29 | -13.42578 | -40.89784 | 35127 ft | 510 kts | 24° |
| 2026-05-04 23:30 | -13.36175 | -40.86631 | 35134 ft | 510 kts | 24° |
| 2026-05-04 23:30 | -13.29771 | -40.83479 | 35122 ft | 510 kts | 24° |
| 2026-05-04 23:31 | -13.23367 | -40.80328 | 35122 ft | 510 kts | 24° |
| 2026-05-04 23:31 | -13.16968 | -40.77182 | 35120 ft | 509 kts | 24° |
| 2026-05-04 23:32 | -13.10613 | -40.74056 | 35117 ft | 510 kts | 24° |
| 2026-05-04 23:32 | -13.04214 | -40.70902 | 35114 ft | 510 kts | 24° |
| 2026-05-04 23:33 | -12.97821 | -40.67752 | 35117 ft | 510 kts | 24° |
| 2026-05-04 23:33 | -12.91429 | -40.64606 | 35119 ft | 510 kts | 24° |
| 2026-05-04 23:34 | -12.85018 | -40.61452 | 35115 ft | 510 kts | 24° |
| 2026-05-04 23:34 | -12.78617 | -40.58304 | 35112 ft | 510 kts | 24° |
| 2026-05-04 23:35 | -12.72215 | -40.55158 | 35112 ft | 510 kts | 24° |
| 2026-05-04 23:35 | -12.65858 | -40.52038 | 35116 ft | 510 kts | 24° |
| 2026-05-04 23:36 | -12.59443 | -40.48891 | 35112 ft | 511 kts | 24° |
| 2026-05-04 23:36 | -12.53034 | -40.45747 | 35107 ft | 510 kts | 24° |
| 2026-05-04 23:37 | -12.46624 | -40.42605 | 35116 ft | 510 kts | 24° |
| 2026-05-04 23:37 | -12.40254 | -40.39484 | 35114 ft | 510 kts | 24° |
| 2026-05-04 23:38 | -12.33848 | -40.36346 | 35114 ft | 510 kts | 24° |
| 2026-05-04 23:38 | -12.27447 | -40.33213 | 35109 ft | 510 kts | 24° |
| 2026-05-04 23:39 | -12.21038 | -40.30077 | 35114 ft | 510 kts | 24° |
| 2026-05-04 23:39 | -12.14635 | -40.26946 | 35113 ft | 510 kts | 24° |
| 2026-05-04 23:40 | -12.08233 | -40.23817 | 35121 ft | 510 kts | 24° |
| 2026-05-04 23:40 | -12.01831 | -40.20690 | 35112 ft | 510 kts | 24° |
| 2026-05-04 23:41 | -11.95422 | -40.17562 | 35116 ft | 510 kts | 24° |
| 2026-05-04 23:41 | -11.89064 | -40.14459 | 35113 ft | 510 kts | 24° |
| 2026-05-04 23:42 | -11.82660 | -40.11336 | 35109 ft | 510 kts | 24° |
| 2026-05-04 23:42 | -11.76258 | -40.08215 | 35112 ft | 510 kts | 24° |
| 2026-05-04 23:43 | -11.69857 | -40.05096 | 35115 ft | 510 kts | 24° |
| 2026-05-04 23:43 | -11.63451 | -40.01976 | 35109 ft | 510 kts | 24° |
| 2026-05-04 23:44 | -11.57047 | -39.98860 | 35110 ft | 509 kts | 24° |
| 2026-05-04 23:44 | -11.50651 | -39.95758 | 35108 ft | 509 kts | 24° |
| 2026-05-04 23:45 | -11.44256 | -39.92657 | 35112 ft | 509 kts | 24° |
| 2026-05-04 23:45 | -11.37867 | -39.89559 | 35110 ft | 509 kts | 24° |
| 2026-05-04 23:46 | -11.31529 | -39.86486 | 35110 ft | 508 kts | 24° |
| 2026-05-04 23:46 | -11.25141 | -39.83391 | 35106 ft | 508 kts | 24° |
| 2026-05-04 23:47 | -11.18744 | -39.80293 | 35111 ft | 508 kts | 24° |
| 2026-05-04 23:47 | -11.12352 | -39.77200 | 35106 ft | 508 kts | 24° |
| 2026-05-04 23:48 | -11.05960 | -39.74107 | 35105 ft | 508 kts | 24° |
| 2026-05-04 23:48 | -10.99566 | -39.71015 | 35099 ft | 508 kts | 24° |
| 2026-05-04 23:49 | -10.93174 | -39.67926 | 35102 ft | 508 kts | 24° |
| 2026-05-04 23:49 | -10.86790 | -39.64842 | 35105 ft | 508 kts | 24° |
| 2026-05-04 23:50 | -10.80438 | -39.61774 | 35101 ft | 509 kts | 24° |
| 2026-05-04 23:50 | -10.74044 | -39.58688 | 35098 ft | 508 kts | 24° |
| 2026-05-04 23:51 | -10.67645 | -39.55601 | 35107 ft | 508 kts | 24° |
| 2026-05-04 23:51 | -10.61256 | -39.52521 | 35103 ft | 508 kts | 24° |
| 2026-05-04 23:52 | -10.54867 | -39.49441 | 35104 ft | 508 kts | 24° |
| 2026-05-04 23:52 | -10.48483 | -39.46364 | 35098 ft | 508 kts | 24° |
| 2026-05-04 23:53 | -10.42098 | -39.43289 | 35103 ft | 507 kts | 24° |
| 2026-05-04 23:53 | -10.35714 | -39.40220 | 35104 ft | 507 kts | 24° |
| 2026-05-04 23:54 | -10.29336 | -39.37156 | 35099 ft | 507 kts | 24° |
| 2026-05-04 23:54 | -10.22995 | -39.34110 | 35104 ft | 507 kts | 24° |
| 2026-05-04 23:55 | -10.16617 | -39.31044 | 35097 ft | 507 kts | 24° |
| 2026-05-04 23:56 | -10.07051 | -39.26446 | 35101 ft | 507 kts | 24° |
| 2026-05-04 23:56 | -10.00676 | -39.23383 | 35098 ft | 507 kts | 24° |
| 2026-05-04 23:57 | -9.94302 | -39.20322 | 35091 ft | 507 kts | 24° |
| 2026-05-04 23:57 | -9.87918 | -39.17257 | 35097 ft | 507 kts | 24° |
| 2026-05-04 23:58 | -9.81526 | -39.14221 | 35095 ft | 507 kts | 24° |
| 2026-05-04 23:58 | -9.75099 | -39.11262 | 35097 ft | 507 kts | 23° |
| 2026-05-04 23:59 | -9.68672 | -39.08312 | 35085 ft | 507 kts | 23° |
| 2026-05-04 23:59 | -9.62238 | -39.05347 | 35088 ft | 507 kts | 23° |
| 2026-05-05 00:00 | -9.55857 | -39.02400 | 35091 ft | 507 kts | 23° |
| 2026-05-05 00:00 | -9.49437 | -38.99436 | 35091 ft | 507 kts | 23° |
| 2026-05-05 00:01 | -9.44051 | -38.96950 | 35090 ft | 507 kts | 23° |
| 2026-05-05 00:01 | -9.37661 | -38.94003 | 35081 ft | 507 kts | 23° |
| 2026-05-05 00:02 | -9.31230 | -38.91037 | 35087 ft | 507 kts | 23° |
| 2026-05-05 00:02 | -9.24800 | -38.88074 | 35079 ft | 508 kts | 23° |
| 2026-05-05 00:03 | -9.18364 | -38.85109 | 35076 ft | 508 kts | 23° |
| 2026-05-05 00:03 | -9.11934 | -38.82148 | 35073 ft | 507 kts | 23° |
| 2026-05-05 00:04 | -9.05545 | -38.79207 | 35068 ft | 507 kts | 23° |
| 2026-05-05 00:04 | -8.99077 | -38.76230 | 35068 ft | 507 kts | 23° |
| 2026-05-05 00:05 | -8.92697 | -38.73295 | 35070 ft | 507 kts | 23° |
| 2026-05-05 00:05 | -8.86271 | -38.70340 | 35060 ft | 507 kts | 23° |
| 2026-05-05 00:06 | -8.79848 | -38.67391 | 35062 ft | 507 kts | 23° |
| 2026-05-05 00:06 | -8.73413 | -38.64442 | 35065 ft | 507 kts | 23° |
| 2026-05-05 00:07 | -8.66986 | -38.61495 | 35065 ft | 507 kts | 23° |
| 2026-05-05 00:07 | -8.60554 | -38.58547 | 35062 ft | 507 kts | 23° |
| 2026-05-05 00:08 | -8.54124 | -38.55597 | 35065 ft | 507 kts | 23° |
| 2026-05-05 00:08 | -8.47694 | -38.52634 | 35064 ft | 507 kts | 23° |
| 2026-05-05 00:09 | -8.41268 | -38.49672 | 35064 ft | 507 kts | 23° |
| 2026-05-05 00:09 | -8.34874 | -38.46727 | 35063 ft | 507 kts | 23° |
| 2026-05-05 00:10 | -8.28450 | -38.43770 | 35058 ft | 507 kts | 23° |
| 2026-05-05 00:10 | -8.22024 | -38.40821 | 35066 ft | 507 kts | 22° |
| 2026-05-05 00:11 | -8.15592 | -38.37873 | 35065 ft | 507 kts | 22° |
| 2026-05-05 00:11 | -8.09158 | -38.34925 | 35065 ft | 507 kts | 22° |
| 2026-05-05 00:12 | -8.02743 | -38.31984 | 35058 ft | 507 kts | 22° |
| 2026-05-05 00:12 | -7.96363 | -38.29061 | 35061 ft | 507 kts | 22° |
| 2026-05-05 00:13 | -7.89939 | -38.26118 | 35062 ft | 506 kts | 22° |
| 2026-05-05 00:13 | -7.83527 | -38.23180 | 35053 ft | 506 kts | 22° |
| 2026-05-05 00:14 | -7.77115 | -38.20246 | 35059 ft | 506 kts | 22° |
| 2026-05-05 00:14 | -7.70699 | -38.17318 | 35063 ft | 506 kts | 22° |
| 2026-05-05 00:15 | -7.64277 | -38.14394 | 35055 ft | 506 kts | 22° |
| 2026-05-05 00:15 | -7.57847 | -38.11466 | 35054 ft | 506 kts | 22° |
| 2026-05-05 00:16 | -7.51466 | -38.08559 | 35045 ft | 506 kts | 22° |
| 2026-05-05 00:16 | -7.45045 | -38.05636 | 35039 ft | 506 kts | 22° |
| 2026-05-05 00:17 | -7.38624 | -38.02713 | 35036 ft | 506 kts | 22° |
| 2026-05-05 00:17 | -7.32208 | -37.99793 | 35037 ft | 506 kts | 22° |
| 2026-05-05 00:18 | -7.25791 | -37.96873 | 35030 ft | 506 kts | 22° |
| 2026-05-05 00:18 | -7.19363 | -37.93948 | 35031 ft | 506 kts | 22° |
| 2026-05-05 00:19 | -7.12950 | -37.91030 | 35022 ft | 506 kts | 22° |
| 2026-05-05 00:19 | -7.06540 | -37.88104 | 35018 ft | 506 kts | 22° |
| 2026-05-05 00:20 | -7.00122 | -37.85172 | 35013 ft | 506 kts | 22° |
| 2026-05-05 00:20 | -6.93757 | -37.82267 | 35017 ft | 506 kts | 22° |
| 2026-05-05 00:21 | -6.87333 | -37.79336 | 35016 ft | 506 kts | 22° |
| 2026-05-05 00:21 | -6.80921 | -37.76411 | 35008 ft | 506 kts | 22° |
| 2026-05-05 00:22 | -6.74506 | -37.73493 | 35009 ft | 506 kts | 22° |
| 2026-05-05 00:22 | -6.68084 | -37.70577 | 35017 ft | 506 kts | 22° |
| 2026-05-05 00:23 | -6.61664 | -37.67661 | 35007 ft | 506 kts | 22° |
| 2026-05-05 00:23 | -6.55253 | -37.64749 | 35009 ft | 505 kts | 22° |
| 2026-05-05 00:24 | -6.48841 | -37.61836 | 35009 ft | 505 kts | 22° |
| 2026-05-05 00:24 | -6.42436 | -37.58928 | 35007 ft | 505 kts | 22° |
| 2026-05-05 00:25 | -6.36035 | -37.56022 | 35003 ft | 505 kts | 22° |
| 2026-05-05 00:25 | -6.29677 | -37.53137 | 35008 ft | 505 kts | 22° |
| 2026-05-05 00:26 | -6.23283 | -37.50236 | 35000 ft | 505 kts | 22° |
| 2026-05-05 00:26 | -6.16880 | -37.47332 | 35000 ft | 505 kts | 22° |
| 2026-05-05 00:27 | -6.10482 | -37.44430 | 35002 ft | 505 kts | 22° |
| 2026-05-05 00:27 | -6.04085 | -37.41529 | 35007 ft | 505 kts | 22° |
| 2026-05-05 00:28 | -5.97674 | -37.38631 | 35002 ft | 505 kts | 22° |
| 2026-05-05 00:28 | -5.91265 | -37.35742 | 35001 ft | 505 kts | 22° |
| 2026-05-05 00:29 | -5.84853 | -37.32850 | 34999 ft | 505 kts | 22° |
| 2026-05-05 00:29 | -5.78444 | -37.29958 | 34996 ft | 505 kts | 22° |
| 2026-05-05 00:30 | -5.72034 | -37.27053 | 34995 ft | 505 kts | 23° |
| 2026-05-05 00:30 | -5.65639 | -37.24115 | 35005 ft | 505 kts | 23° |
| 2026-05-05 00:31 | -5.59236 | -37.21174 | 35006 ft | 506 kts | 23° |
| 2026-05-05 00:31 | -5.52876 | -37.18259 | 34994 ft | 506 kts | 23° |
| 2026-05-05 00:32 | -5.46475 | -37.15328 | 35005 ft | 505 kts | 23° |
| 2026-05-05 00:32 | -5.40072 | -37.12406 | 34990 ft | 505 kts | 23° |
| 2026-05-05 00:33 | -5.33675 | -37.09496 | 34989 ft | 504 kts | 23° |
| 2026-05-05 00:33 | -5.27288 | -37.06589 | 34992 ft | 504 kts | 23° |
| 2026-05-05 00:34 | -5.20906 | -37.03683 | 35004 ft | 503 kts | 23° |
| 2026-05-05 00:34 | -5.14525 | -37.00778 | 35003 ft | 503 kts | 23° |
| 2026-05-05 00:35 | -5.08197 | -36.97897 | 35003 ft | 502 kts | 23° |
| 2026-05-05 00:35 | -5.01795 | -36.94984 | 35005 ft | 502 kts | 23° |
| 2026-05-05 00:36 | -4.95481 | -36.92111 | 35000 ft | 501 kts | 23° |
| 2026-05-05 00:36 | -4.89136 | -36.89212 | 35002 ft | 501 kts | 23° |
| 2026-05-05 00:37 | -4.82801 | -36.86311 | 34997 ft | 501 kts | 23° |
| 2026-05-05 00:37 | -4.76462 | -36.83411 | 34997 ft | 500 kts | 23° |
| 2026-05-05 00:38 | -4.70127 | -36.80514 | 34999 ft | 500 kts | 23° |
| 2026-05-05 00:38 | -4.63785 | -36.77620 | 34997 ft | 500 kts | 23° |
| 2026-05-05 00:39 | -4.57441 | -36.74730 | 34999 ft | 501 kts | 23° |
| 2026-05-05 00:39 | -4.51089 | -36.71835 | 35005 ft | 501 kts | 23° |
| 2026-05-05 00:40 | -4.44730 | -36.68936 | 35003 ft | 503 kts | 23° |
| 2026-05-05 00:40 | -4.38361 | -36.66033 | 35001 ft | 504 kts | 23° |
| 2026-05-05 00:41 | -4.31974 | -36.63123 | 34998 ft | 504 kts | 23° |
| 2026-05-05 00:41 | -4.25624 | -36.60229 | 34997 ft | 505 kts | 23° |
| 2026-05-05 00:42 | -4.19231 | -36.57317 | 35000 ft | 504 kts | 23° |
| 2026-05-05 00:42 | -4.12828 | -36.54401 | 34999 ft | 504 kts | 23° |
| 2026-05-05 00:43 | -4.06443 | -36.51493 | 34996 ft | 504 kts | 23° |
| 2026-05-05 00:43 | -4.00058 | -36.48586 | 35000 ft | 504 kts | 23° |
| 2026-05-05 00:44 | -3.93675 | -36.45680 | 34999 ft | 504 kts | 23° |
| 2026-05-05 00:44 | -3.87293 | -36.42775 | 35005 ft | 504 kts | 23° |
| 2026-05-05 00:45 | -3.80901 | -36.39867 | 35005 ft | 504 kts | 23° |
| 2026-05-05 00:45 | -3.74552 | -36.36978 | 35005 ft | 504 kts | 23° |
| 2026-05-05 00:46 | -3.68162 | -36.34071 | 34999 ft | 504 kts | 23° |
| 2026-05-05 00:46 | -3.61777 | -36.31167 | 35000 ft | 503 kts | 23° |
| 2026-05-05 00:47 | -3.55396 | -36.28265 | 35002 ft | 503 kts | 23° |
| 2026-05-05 00:47 | -3.49009 | -36.25360 | 35006 ft | 504 kts | 23° |
| 2026-05-05 00:48 | -3.43710 | -36.22951 | 35003 ft | 504 kts | 23° |
| 2026-05-05 00:48 | -3.36294 | -36.19581 | 34999 ft | 503 kts | 22° |
| 2026-05-05 00:49 | -3.29923 | -36.16684 | 35002 ft | 503 kts | 24° |
| 2026-05-05 00:49 | -3.24575 | -36.14254 | 35003 ft | 503 kts | 23° |
| 2026-05-05 00:50 | -3.18236 | -36.11373 | 34999 ft | 504 kts | 23° |
| 2026-05-05 00:50 | -3.11848 | -36.08471 | 35001 ft | 504 kts | 23° |
| 2026-05-05 00:51 | -3.05476 | -36.05576 | 34999 ft | 502 kts | 23° |
| 2026-05-05 00:51 | -2.99107 | -36.02683 | 35003 ft | 501 kts | 22° |
| 2026-05-05 00:52 | -2.92748 | -35.99795 | 35002 ft | 502 kts | 23° |
| 2026-05-05 00:52 | -2.86429 | -35.96925 | 35002 ft | 501 kts | 23° |
| 2026-05-05 00:53 | -2.80069 | -35.94037 | 35003 ft | 502 kts | 23° |
| 2026-05-05 00:53 | -2.73718 | -35.91154 | 35000 ft | 501 kts | 23° |
| 2026-05-05 00:54 | -2.67377 | -35.88276 | 35003 ft | 499 kts | 24° |
| 2026-05-05 00:54 | -2.61062 | -35.85410 | 35003 ft | 498 kts | 24° |
| 2026-05-05 00:55 | -2.54748 | -35.82545 | 35008 ft | 499 kts | 24° |
| 2026-05-05 00:55 | -2.48424 | -35.79675 | 35006 ft | 500 kts | 23° |
| 2026-05-05 00:56 | -2.42083 | -35.76799 | 35005 ft | 500 kts | 24° |
| 2026-05-05 00:56 | -2.35748 | -35.73924 | 35008 ft | 500 kts | 25° |
| 2026-05-05 00:57 | -2.29452 | -35.71067 | 35008 ft | 500 kts | 25° |
| 2026-05-05 00:57 | -2.23120 | -35.68195 | 35012 ft | 499 kts | 25° |
| 2026-05-05 00:58 | -2.16790 | -35.65324 | 35012 ft | 499 kts | 25° |
| 2026-05-05 00:58 | -2.10455 | -35.62451 | 35009 ft | 499 kts | 25° |
| 2026-05-05 00:59 | -2.04134 | -35.59584 | 35008 ft | 498 kts | 26° |
| 2026-05-05 00:59 | -1.97816 | -35.56720 | 35006 ft | 497 kts | 25° |
| 2026-05-05 01:00 | -1.91560 | -35.53883 | 35007 ft | 497 kts | 26° |
| 2026-05-05 01:00 | -1.85254 | -35.51022 | 35011 ft | 498 kts | 25° |
| 2026-05-05 01:01 | -1.78931 | -35.48156 | 35012 ft | 499 kts | 25° |
| 2026-05-05 01:01 | -1.72638 | -35.45193 | 35006 ft | 499 kts | 30° |
| 2026-05-05 01:02 | -1.66548 | -35.41856 | 35008 ft | 499 kts | 30° |
| 2026-05-05 01:02 | -1.60478 | -35.38483 | 35008 ft | 499 kts | 30° |
| 2026-05-05 01:03 | -1.54429 | -35.35140 | 35011 ft | 499 kts | 30° |
| 2026-05-05 01:03 | -1.48347 | -35.31798 | 35008 ft | 499 kts | 30° |
| 2026-05-05 01:04 | -1.42266 | -35.28462 | 35009 ft | 499 kts | 30° |
| 2026-05-05 01:04 | -1.33141 | -35.23455 | 35008 ft | 498 kts | 30° |
| 2026-05-05 01:05 | -1.27066 | -35.20120 | 35006 ft | 498 kts | 30° |
| 2026-05-05 01:05 | -1.20989 | -35.16785 | 35007 ft | 498 kts | 30° |
| 2026-05-05 01:06 | -1.14917 | -35.13452 | 35010 ft | 498 kts | 30° |
| 2026-05-05 01:06 | -1.08829 | -35.10112 | 35008 ft | 499 kts | 30° |
| 2026-05-05 01:07 | -1.02782 | -35.06793 | 35009 ft | 499 kts | 30° |
| 2026-05-05 01:07 | -0.96690 | -35.03451 | 35008 ft | 499 kts | 30° |
| 2026-05-05 01:08 | -0.90600 | -35.00109 | 35011 ft | 499 kts | 30° |
| 2026-05-05 01:08 | -0.84495 | -34.96760 | 35012 ft | 499 kts | 30° |
| 2026-05-05 01:09 | -0.78403 | -34.93417 | 35010 ft | 499 kts | 30° |
| 2026-05-05 01:09 | -0.72359 | -34.90101 | 35009 ft | 499 kts | 30° |
| 2026-05-05 01:10 | -0.66275 | -34.86763 | 35005 ft | 499 kts | 30° |
| 2026-05-05 01:10 | -0.60192 | -34.83426 | 34994 ft | 499 kts | 30° |
| 2026-05-05 01:11 | -0.54106 | -34.80086 | 35014 ft | 500 kts | 30° |
| 2026-05-05 01:11 | -0.48003 | -34.76738 | 35014 ft | 501 kts | 30° |
| 2026-05-05 01:12 | -0.41878 | -34.73378 | 34997 ft | 502 kts | 30° |
| 2026-05-05 01:12 | -0.35747 | -34.70015 | 35014 ft | 503 kts | 30° |
| 2026-05-05 01:13 | -0.29649 | -34.66670 | 35012 ft | 503 kts | 30° |
| 2026-05-05 01:13 | -0.23506 | -34.63300 | 35000 ft | 504 kts | 30° |
| 2026-05-05 01:14 | -0.17352 | -34.59924 | 34998 ft | 504 kts | 30° |
| 2026-05-05 01:14 | -0.11204 | -34.56552 | 35000 ft | 504 kts | 30° |
| 2026-05-05 01:15 | -0.05065 | -34.53184 | 35017 ft | 503 kts | 30° |
| 2026-05-05 01:15 | 0.01084 | -34.49811 | 35002 ft | 503 kts | 30° |
| 2026-05-05 01:16 | 0.07185 | -34.46465 | 35019 ft | 504 kts | 30° |
| 2026-05-05 01:16 | 0.13335 | -34.43091 | 35000 ft | 504 kts | 30° |
| 2026-05-05 01:17 | 0.19492 | -34.39714 | 34999 ft | 505 kts | 30° |
| 2026-05-05 01:17 | 0.25649 | -34.36336 | 34998 ft | 505 kts | 30° |
| 2026-05-05 01:18 | 0.31823 | -34.32949 | 35016 ft | 505 kts | 30° |
| 2026-05-05 01:18 | 0.38004 | -34.29558 | 34998 ft | 506 kts | 30° |
| 2026-05-05 01:19 | 0.44188 | -34.26166 | 35001 ft | 507 kts | 30° |
| 2026-05-05 01:19 | 0.50374 | -34.22772 | 35016 ft | 508 kts | 30° |
| 2026-05-05 01:20 | 0.56534 | -34.19393 | 35004 ft | 508 kts | 30° |
| 2026-05-05 01:20 | 0.62732 | -34.15992 | 35008 ft | 508 kts | 30° |
| 2026-05-05 01:21 | 0.68937 | -34.12587 | 34999 ft | 509 kts | 30° |
| 2026-05-05 01:21 | 0.75191 | -34.09156 | 35004 ft | 510 kts | 30° |
| 2026-05-05 01:22 | 0.81384 | -34.05757 | 35006 ft | 511 kts | 30° |
| 2026-05-05 01:22 | 0.87616 | -34.02337 | 35004 ft | 511 kts | 30° |
| 2026-05-05 01:23 | 0.93861 | -33.98911 | 35004 ft | 511 kts | 30° |
| 2026-05-05 01:23 | 1.00102 | -33.95484 | 34998 ft | 512 kts | 30° |
| 2026-05-05 01:24 | 1.06353 | -33.92052 | 35008 ft | 512 kts | 30° |
| 2026-05-05 01:24 | 1.12608 | -33.88617 | 35003 ft | 513 kts | 30° |
| 2026-05-05 01:25 | 1.18870 | -33.85178 | 35004 ft | 513 kts | 30° |
| 2026-05-05 01:25 | 1.25093 | -33.81761 | 35000 ft | 513 kts | 30° |
| 2026-05-05 01:26 | 1.31358 | -33.78320 | 35000 ft | 514 kts | 30° |
| 2026-05-05 01:26 | 1.37625 | -33.74878 | 35004 ft | 514 kts | 30° |
| 2026-05-05 01:27 | 1.43898 | -33.71432 | 34998 ft | 514 kts | 30° |
| 2026-05-05 01:27 | 1.50171 | -33.67986 | 34999 ft | 514 kts | 30° |
| 2026-05-05 01:28 | 1.56412 | -33.64557 | 35004 ft | 514 kts | 30° |
| 2026-05-05 01:28 | 1.62680 | -33.61113 | 34996 ft | 515 kts | 29° |
| 2026-05-05 01:29 | 1.68955 | -33.57664 | 35001 ft | 515 kts | 30° |
| 2026-05-05 01:29 | 1.75235 | -33.54213 | 35002 ft | 515 kts | 29° |
| 2026-05-05 01:30 | 1.81516 | -33.50763 | 35001 ft | 515 kts | 29° |
| 2026-05-05 01:30 | 1.87802 | -33.47308 | 35003 ft | 516 kts | 30° |
| 2026-05-05 01:31 | 1.94092 | -33.43849 | 35001 ft | 516 kts | 30° |
| 2026-05-05 01:31 | 2.00380 | -33.40392 | 35007 ft | 516 kts | 29° |
| 2026-05-05 01:32 | 2.06677 | -33.36928 | 35002 ft | 516 kts | 29° |
| 2026-05-05 01:32 | 2.12932 | -33.33488 | 35003 ft | 516 kts | 29° |
| 2026-05-05 01:33 | 2.19223 | -33.30027 | 35007 ft | 516 kts | 29° |
| 2026-05-05 01:33 | 2.25517 | -33.26565 | 35005 ft | 515 kts | 30° |
| 2026-05-05 01:34 | 2.31800 | -33.23108 | 34999 ft | 515 kts | 30° |
| 2026-05-05 01:34 | 2.38042 | -33.19673 | 35003 ft | 515 kts | 30° |
| 2026-05-05 01:35 | 2.44324 | -33.16217 | 34999 ft | 515 kts | 30° |
| 2026-05-05 01:35 | 2.50603 | -33.12761 | 34999 ft | 515 kts | 30° |
| 2026-05-05 01:36 | 2.56881 | -33.09305 | 35001 ft | 514 kts | 30° |
| 2026-05-05 01:36 | 2.63160 | -33.05849 | 35000 ft | 514 kts | 30° |
| 2026-05-05 01:37 | 2.68376 | -33.02977 | 35000 ft | 514 kts | 30° |
| 2026-05-05 01:37 | 2.75661 | -32.98966 | 35001 ft | 514 kts | 30° |
| 2026-05-05 01:38 | 2.80911 | -32.96075 | 34998 ft | 514 kts | 30° |
| 2026-05-05 01:38 | 2.87180 | -32.92623 | 35000 ft | 514 kts | 30° |
| 2026-05-05 01:39 | 2.93410 | -32.89191 | 34998 ft | 514 kts | 30° |
| 2026-05-05 01:39 | 2.99675 | -32.85740 | 35000 ft | 514 kts | 29° |
| 2026-05-05 01:40 | 3.05948 | -32.82283 | 34998 ft | 514 kts | 29° |
| 2026-05-05 01:40 | 3.12220 | -32.78827 | 35003 ft | 514 kts | 29° |
| 2026-05-05 01:41 | 3.18497 | -32.75368 | 34996 ft | 514 kts | 29° |
| 2026-05-05 01:41 | 3.24765 | -32.71912 | 34995 ft | 515 kts | 29° |
| 2026-05-05 01:42 | 3.31040 | -32.68453 | 34998 ft | 515 kts | 29° |
| 2026-05-05 01:42 | 3.37320 | -32.64990 | 34996 ft | 515 kts | 29° |
| 2026-05-05 01:43 | 3.43555 | -32.61551 | 34997 ft | 515 kts | 29° |
| 2026-05-05 01:43 | 3.49827 | -32.58098 | 34999 ft | 515 kts | 29° |
| 2026-05-05 01:44 | 3.56114 | -32.54638 | 34999 ft | 515 kts | 29° |
| 2026-05-05 01:44 | 3.62395 | -32.51179 | 34996 ft | 515 kts | 29° |
| 2026-05-05 01:45 | 3.68679 | -32.47716 | 34999 ft | 515 kts | 29° |
| 2026-05-05 01:45 | 3.74969 | -32.44250 | 34999 ft | 515 kts | 29° |
| 2026-05-05 01:46 | 3.81254 | -32.40786 | 34999 ft | 515 kts | 29° |
| 2026-05-05 01:46 | 3.87493 | -32.37347 | 35000 ft | 515 kts | 29° |
| 2026-05-05 01:47 | 3.93787 | -32.33876 | 34998 ft | 516 kts | 29° |
| 2026-05-05 01:47 | 4.00079 | -32.30407 | 34998 ft | 516 kts | 29° |
| 2026-05-05 01:48 | 4.06364 | -32.26940 | 34998 ft | 516 kts | 29° |
| 2026-05-05 01:48 | 4.12653 | -32.23471 | 34998 ft | 516 kts | 29° |
| 2026-05-05 01:49 | 4.18935 | -32.20005 | 34997 ft | 516 kts | 29° |
| 2026-05-05 01:49 | 4.25222 | -32.16535 | 34992 ft | 516 kts | 29° |
| 2026-05-05 01:50 | 4.31484 | -32.13078 | 35000 ft | 516 kts | 29° |
| 2026-05-05 01:50 | 4.37780 | -32.09603 | 34998 ft | 516 kts | 29° |
| 2026-05-05 01:51 | 4.44072 | -32.06128 | 34998 ft | 516 kts | 29° |
| 2026-05-05 01:51 | 4.50372 | -32.02649 | 35000 ft | 516 kts | 29° |
| 2026-05-05 01:52 | 4.56667 | -31.99172 | 34996 ft | 517 kts | 29° |
| 2026-05-05 01:52 | 4.62966 | -31.95692 | 34998 ft | 517 kts | 29° |
| 2026-05-05 01:53 | 4.69267 | -31.92209 | 34998 ft | 517 kts | 29° |
| 2026-05-05 01:53 | 4.75566 | -31.88728 | 34997 ft | 517 kts | 29° |
| 2026-05-05 01:54 | 4.81865 | -31.85245 | 34994 ft | 517 kts | 29° |
| 2026-05-05 01:54 | 4.88160 | -31.81764 | 34993 ft | 517 kts | 29° |
| 2026-05-05 01:55 | 4.94423 | -31.78300 | 34998 ft | 517 kts | 29° |
| 2026-05-05 01:55 | 5.00728 | -31.74812 | 34994 ft | 517 kts | 29° |
| 2026-05-05 01:56 | 5.07025 | -31.71327 | 34994 ft | 517 kts | 29° |
| 2026-05-05 01:56 | 5.13328 | -31.67838 | 34994 ft | 517 kts | 29° |
| 2026-05-05 01:57 | 5.19636 | -31.64345 | 34994 ft | 517 kts | 29° |
| 2026-05-05 01:57 | 5.25938 | -31.60840 | 34995 ft | 518 kts | 29° |
| 2026-05-05 01:58 | 5.32223 | -31.57305 | 34995 ft | 518 kts | 30° |
| 2026-05-05 01:58 | 5.38502 | -31.53767 | 34994 ft | 518 kts | 30° |
| 2026-05-05 01:59 | 5.44749 | -31.50250 | 34997 ft | 518 kts | 29° |
| 2026-05-05 01:59 | 5.51036 | -31.46714 | 34995 ft | 518 kts | 29° |
| 2026-05-05 02:00 | 5.57330 | -31.43174 | 34995 ft | 518 kts | 29° |
| 2026-05-05 02:00 | 5.63617 | -31.39637 | 34998 ft | 518 kts | 29° |
| 2026-05-05 02:01 | 5.69908 | -31.36096 | 34995 ft | 518 kts | 29° |
| 2026-05-05 02:01 | 5.76204 | -31.32552 | 34997 ft | 518 kts | 29° |
| 2026-05-05 02:02 | 5.82499 | -31.29007 | 34994 ft | 518 kts | 29° |
| 2026-05-05 02:02 | 5.88791 | -31.25463 | 34997 ft | 518 kts | 29° |
| 2026-05-05 02:03 | 5.95046 | -31.21939 | 34998 ft | 518 kts | 29° |
| 2026-05-05 02:03 | 6.01336 | -31.18395 | 34997 ft | 518 kts | 29° |
| 2026-05-05 02:04 | 6.07629 | -31.14847 | 35002 ft | 518 kts | 29° |
| 2026-05-05 02:04 | 6.13919 | -31.11300 | 34999 ft | 518 kts | 29° |
| 2026-05-05 02:05 | 6.20208 | -31.07753 | 34996 ft | 518 kts | 29° |
| 2026-05-05 02:05 | 6.26500 | -31.04203 | 34996 ft | 518 kts | 29° |
| 2026-05-05 02:06 | 6.32797 | -31.00650 | 34996 ft | 518 kts | 29° |
| 2026-05-05 02:06 | 6.39077 | -30.97105 | 35002 ft | 518 kts | 29° |
| 2026-05-05 02:07 | 6.45327 | -30.93576 | 34997 ft | 518 kts | 29° |
| 2026-05-05 02:07 | 6.51654 | -30.90002 | 35001 ft | 518 kts | 29° |
| 2026-05-05 02:08 | 6.57936 | -30.86453 | 34996 ft | 518 kts | 29° |
| 2026-05-05 02:08 | 6.64221 | -30.82902 | 34998 ft | 518 kts | 29° |
| 2026-05-05 02:09 | 6.70512 | -30.79345 | 34998 ft | 518 kts | 29° |
| 2026-05-05 02:09 | 6.76757 | -30.75814 | 34997 ft | 518 kts | 29° |
| 2026-05-05 02:10 | 6.83035 | -30.72263 | 34997 ft | 518 kts | 29° |
| 2026-05-05 02:10 | 6.89325 | -30.68704 | 34999 ft | 518 kts | 29° |
| 2026-05-05 02:11 | 6.95611 | -30.65146 | 34998 ft | 518 kts | 29° |
| 2026-05-05 02:11 | 7.01899 | -30.61586 | 34995 ft | 518 kts | 29° |
| 2026-05-05 02:12 | 7.11328 | -30.56246 | 34997 ft | 518 kts | 29° |
| 2026-05-05 02:13 | 7.17614 | -30.52684 | 34999 ft | 518 kts | 29° |
| 2026-05-05 02:13 | 7.23895 | -30.49124 | 34995 ft | 519 kts | 29° |
| 2026-05-05 02:14 | 7.30193 | -30.45553 | 34992 ft | 519 kts | 29° |
| 2026-05-05 02:14 | 7.36479 | -30.41988 | 34995 ft | 519 kts | 29° |
| 2026-05-05 02:15 | 7.42777 | -30.38415 | 34997 ft | 519 kts | 29° |
| 2026-05-05 02:15 | 7.49032 | -30.34865 | 34999 ft | 519 kts | 29° |
| 2026-05-05 02:16 | 7.55319 | -30.31296 | 34999 ft | 519 kts | 28° |
| 2026-05-05 02:16 | 7.61610 | -30.27723 | 34997 ft | 519 kts | 28° |
| 2026-05-05 02:17 | 7.67915 | -30.24141 | 35000 ft | 519 kts | 28° |
| 2026-05-05 02:17 | 7.74212 | -30.20563 | 34997 ft | 520 kts | 28° |
| 2026-05-05 02:18 | 7.80514 | -30.16980 | 34995 ft | 520 kts | 28° |
| 2026-05-05 02:18 | 7.86819 | -30.13394 | 34998 ft | 520 kts | 28° |
| 2026-05-05 02:19 | 7.93079 | -30.09833 | 34998 ft | 520 kts | 28° |
| 2026-05-05 02:19 | 7.99390 | -30.06241 | 34997 ft | 520 kts | 28° |
| 2026-05-05 02:20 | 8.05697 | -30.02651 | 34999 ft | 521 kts | 28° |
| 2026-05-05 02:20 | 8.12012 | -29.99054 | 34997 ft | 521 kts | 28° |
| 2026-05-05 02:21 | 8.18332 | -29.95453 | 34997 ft | 521 kts | 28° |
| 2026-05-05 02:21 | 8.24643 | -29.91856 | 34996 ft | 521 kts | 28° |
| 2026-05-05 02:22 | 8.30930 | -29.88272 | 34998 ft | 521 kts | 28° |
| 2026-05-05 02:22 | 8.37249 | -29.84667 | 34997 ft | 522 kts | 28° |
| 2026-05-05 02:23 | 8.43574 | -29.81057 | 34999 ft | 522 kts | 28° |
| 2026-05-05 02:23 | 8.49905 | -29.77443 | 34996 ft | 522 kts | 28° |
| 2026-05-05 02:24 | 8.56229 | -29.73836 | 35002 ft | 522 kts | 28° |
| 2026-05-05 02:24 | 8.61486 | -29.70837 | 34996 ft | 522 kts | 28° |
| 2026-05-05 02:25 | 8.67817 | -29.67223 | 35000 ft | 522 kts | 28° |
| 2026-05-05 02:25 | 8.75178 | -29.63018 | 35000 ft | 522 kts | 28° |
| 2026-05-05 02:26 | 8.80478 | -29.59989 | 35003 ft | 522 kts | 28° |
| 2026-05-05 02:26 | 8.86772 | -29.56391 | 35000 ft | 523 kts | 28° |
| 2026-05-05 02:27 | 8.93100 | -29.52771 | 34999 ft | 523 kts | 28° |
| 2026-05-05 02:27 | 8.99434 | -29.49147 | 35001 ft | 523 kts | 28° |
| 2026-05-05 02:28 | 9.05808 | -29.45499 | 34998 ft | 523 kts | 28° |
| 2026-05-05 02:28 | 9.12101 | -29.41895 | 35001 ft | 523 kts | 28° |
| 2026-05-05 02:29 | 9.18437 | -29.38265 | 35001 ft | 523 kts | 28° |
| 2026-05-05 02:29 | 9.24770 | -29.34635 | 35000 ft | 523 kts | 28° |
| 2026-05-05 02:30 | 9.31110 | -29.31001 | 35001 ft | 523 kts | 28° |
| 2026-05-05 02:30 | 9.37448 | -29.27365 | 35002 ft | 524 kts | 28° |
| 2026-05-05 02:31 | 9.43757 | -29.23745 | 35002 ft | 524 kts | 28° |
| 2026-05-05 02:31 | 9.50099 | -29.20104 | 34995 ft | 524 kts | 28° |
| 2026-05-05 02:32 | 9.56435 | -29.16464 | 35004 ft | 523 kts | 28° |
| 2026-05-05 02:32 | 9.62768 | -29.12825 | 34999 ft | 523 kts | 28° |
| 2026-05-05 02:33 | 9.69090 | -29.09191 | 34997 ft | 523 kts | 28° |
| 2026-05-05 02:33 | 9.75420 | -29.05549 | 35003 ft | 522 kts | 28° |
| 2026-05-05 02:34 | 9.81740 | -29.01913 | 35005 ft | 522 kts | 28° |
| 2026-05-05 02:34 | 9.88067 | -28.98271 | 34996 ft | 522 kts | 28° |
| 2026-05-05 02:35 | 9.94381 | -28.94633 | 35006 ft | 522 kts | 28° |
| 2026-05-05 02:35 | 10.00681 | -28.91000 | 34998 ft | 522 kts | 28° |
| 2026-05-05 02:36 | 10.06950 | -28.87384 | 34995 ft | 521 kts | 28° |
| 2026-05-05 02:36 | 10.13249 | -28.83749 | 34997 ft | 521 kts | 28° |
| 2026-05-05 02:37 | 10.19543 | -28.80114 | 34997 ft | 521 kts | 28° |
| 2026-05-05 02:37 | 10.25822 | -28.76488 | 34997 ft | 520 kts | 28° |
| 2026-05-05 02:38 | 10.32124 | -28.72846 | 34996 ft | 520 kts | 28° |
| 2026-05-05 02:38 | 10.38413 | -28.69210 | 34998 ft | 520 kts | 28° |
| 2026-05-05 02:39 | 10.44709 | -28.65567 | 35003 ft | 520 kts | 28° |
| 2026-05-05 02:39 | 10.50984 | -28.61936 | 34995 ft | 520 kts | 28° |
| 2026-05-05 02:40 | 10.57281 | -28.58291 | 35228 ft | 524 kts | 28° |
| 2026-05-05 02:40 | 10.60480 | -28.56437 | 35542 ft | 523 kts | 28° |
| 2026-05-05 02:40 | 10.63612 | -28.54622 | 35877 ft | 522 kts | 27° |
| 2026-05-05 02:40 | 10.66766 | -28.52794 | 36169 ft | 521 kts | 27° |
| 2026-05-05 02:41 | 10.69933 | -28.50959 | 36445 ft | 520 kts | 27° |
| 2026-05-05 02:41 | 10.73050 | -28.49152 | 36703 ft | 521 kts | 27° |
| 2026-05-05 02:41 | 10.76215 | -28.47317 | 36921 ft | 521 kts | 27° |
| 2026-05-05 02:42 | 10.82537 | -28.43650 | 37002 ft | 523 kts | 27° |
| 2026-05-05 02:42 | 10.88839 | -28.39992 | 36994 ft | 520 kts | 27° |
| 2026-05-05 02:43 | 10.95112 | -28.36348 | 36992 ft | 518 kts | 27° |
| 2026-05-05 02:43 | 11.01320 | -28.32741 | 37003 ft | 517 kts | 27° |
| 2026-05-05 02:44 | 11.07550 | -28.29121 | 36984 ft | 517 kts | 27° |
| 2026-05-05 02:44 | 11.13798 | -28.25488 | 36997 ft | 518 kts | 27° |
| 2026-05-05 02:45 | 11.20053 | -28.21849 | 37002 ft | 519 kts | 27° |
| 2026-05-05 02:45 | 11.26368 | -28.18173 | 36999 ft | 521 kts | 27° |
| 2026-05-05 02:46 | 11.32631 | -28.14525 | 36994 ft | 522 kts | 27° |
| 2026-05-05 02:46 | 11.38969 | -28.10832 | 36992 ft | 523 kts | 27° |
| 2026-05-05 02:47 | 11.45265 | -28.07161 | 36993 ft | 524 kts | 27° |
| 2026-05-05 02:47 | 11.51592 | -28.03470 | 36991 ft | 524 kts | 27° |
| 2026-05-05 02:48 | 11.57921 | -27.99777 | 36993 ft | 524 kts | 27° |
| 2026-05-05 02:48 | 11.64247 | -27.96082 | 36994 ft | 523 kts | 27° |
| 2026-05-05 02:49 | 11.70541 | -27.92405 | 36995 ft | 523 kts | 27° |
| 2026-05-05 02:49 | 11.76862 | -27.88711 | 36995 ft | 523 kts | 27° |
| 2026-05-05 02:50 | 11.83168 | -27.85022 | 36994 ft | 524 kts | 27° |
| 2026-05-05 02:50 | 11.89520 | -27.81305 | 36989 ft | 524 kts | 27° |
| 2026-05-05 02:51 | 11.95822 | -27.77616 | 36992 ft | 524 kts | 27° |
| 2026-05-05 02:51 | 12.02142 | -27.73913 | 36994 ft | 524 kts | 27° |
| 2026-05-05 02:52 | 12.08443 | -27.70220 | 36987 ft | 525 kts | 27° |
| 2026-05-05 02:52 | 12.14797 | -27.66494 | 36990 ft | 525 kts | 27° |
| 2026-05-05 02:53 | 12.21115 | -27.62786 | 36992 ft | 526 kts | 27° |
| 2026-05-05 02:53 | 12.27480 | -27.59050 | 36990 ft | 526 kts | 27° |
| 2026-05-05 02:54 | 12.33797 | -27.55339 | 37001 ft | 527 kts | 26° |
| 2026-05-05 02:54 | 12.40159 | -27.51599 | 36993 ft | 527 kts | 26° |
| 2026-05-05 02:55 | 12.46482 | -27.47880 | 36988 ft | 527 kts | 26° |
| 2026-05-05 02:55 | 12.52847 | -27.44135 | 36989 ft | 527 kts | 26° |
| 2026-05-05 02:56 | 12.59220 | -27.40383 | 36988 ft | 527 kts | 26° |
| 2026-05-05 02:56 | 12.65538 | -27.36660 | 36984 ft | 527 kts | 26° |
| 2026-05-05 02:57 | 12.71913 | -27.32902 | 36986 ft | 527 kts | 26° |
| 2026-05-05 02:57 | 12.78237 | -27.29173 | 36982 ft | 528 kts | 26° |
| 2026-05-05 02:58 | 12.84598 | -27.25418 | 36979 ft | 528 kts | 26° |
| 2026-05-05 02:58 | 12.90965 | -27.21659 | 36987 ft | 528 kts | 26° |
| 2026-05-05 02:59 | 12.97331 | -27.17898 | 36980 ft | 528 kts | 26° |
| 2026-05-05 02:59 | 13.03655 | -27.14159 | 36985 ft | 528 kts | 26° |
| 2026-05-05 03:00 | 13.10017 | -27.10395 | 36976 ft | 527 kts | 26° |
| 2026-05-05 03:00 | 13.16373 | -27.06633 | 36981 ft | 526 kts | 26° |
| 2026-05-05 03:01 | 13.22710 | -27.02880 | 36981 ft | 526 kts | 26° |
| 2026-05-05 03:01 | 13.29036 | -26.99131 | 36983 ft | 526 kts | 26° |
| 2026-05-05 03:02 | 13.35337 | -26.95394 | 36979 ft | 525 kts | 26° |
| 2026-05-05 03:02 | 13.41692 | -26.91624 | 36989 ft | 526 kts | 26° |
| 2026-05-05 03:03 | 13.48025 | -26.87864 | 36987 ft | 527 kts | 26° |
| 2026-05-05 03:03 | 13.54347 | -26.84109 | 36978 ft | 528 kts | 26° |
| 2026-05-05 03:04 | 13.60708 | -26.80327 | 36981 ft | 529 kts | 26° |
| 2026-05-05 03:04 | 13.67090 | -26.76531 | 36977 ft | 529 kts | 26° |
| 2026-05-05 03:05 | 13.73469 | -26.72734 | 36989 ft | 530 kts | 26° |
| 2026-05-05 03:05 | 13.79820 | -26.68951 | 36977 ft | 530 kts | 26° |
| 2026-05-05 03:06 | 13.86219 | -26.65138 | 36980 ft | 531 kts | 26° |
| 2026-05-05 03:06 | 13.92586 | -26.61341 | 36970 ft | 531 kts | 26° |
| 2026-05-05 03:07 | 13.98989 | -26.57520 | 36980 ft | 531 kts | 26° |
| 2026-05-05 03:07 | 14.05369 | -26.53709 | 36979 ft | 531 kts | 26° |
| 2026-05-05 03:08 | 14.11723 | -26.49913 | 36971 ft | 531 kts | 26° |
| 2026-05-05 03:08 | 14.18132 | -26.46081 | 36973 ft | 531 kts | 26° |
| 2026-05-05 03:09 | 14.24514 | -26.42262 | 36983 ft | 531 kts | 26° |
| 2026-05-05 03:09 | 14.30906 | -26.38434 | 36975 ft | 532 kts | 26° |
| 2026-05-05 03:10 | 14.37272 | -26.34620 | 36970 ft | 532 kts | 26° |
| 2026-05-05 03:10 | 14.43677 | -26.30783 | 36976 ft | 532 kts | 25° |
| 2026-05-05 03:11 | 14.50087 | -26.26940 | 36973 ft | 533 kts | 25° |
| 2026-05-05 03:11 | 14.56493 | -26.23095 | 36976 ft | 533 kts | 25° |
| 2026-05-05 03:12 | 14.62900 | -26.19246 | 36976 ft | 533 kts | 25° |
| 2026-05-05 03:12 | 14.69278 | -26.15412 | 36976 ft | 534 kts | 25° |
| 2026-05-05 03:13 | 14.75704 | -26.11546 | 36989 ft | 534 kts | 25° |
| 2026-05-05 03:13 | 14.82125 | -26.07682 | 36974 ft | 534 kts | 25° |
| 2026-05-05 03:14 | 14.88515 | -26.03833 | 36977 ft | 534 kts | 25° |
| 2026-05-05 03:14 | 14.94945 | -25.99958 | 36975 ft | 535 kts | 25° |
| 2026-05-05 03:15 | 15.01365 | -25.96085 | 36976 ft | 535 kts | 25° |
| 2026-05-05 03:15 | 15.07806 | -25.92197 | 36976 ft | 535 kts | 25° |
| 2026-05-05 03:16 | 15.14202 | -25.88334 | 36976 ft | 535 kts | 25° |
| 2026-05-05 03:16 | 15.20637 | -25.84444 | 36972 ft | 536 kts | 25° |
| 2026-05-05 03:17 | 15.27054 | -25.80563 | 36972 ft | 536 kts | 25° |
| 2026-05-05 03:17 | 15.33504 | -25.76658 | 36976 ft | 536 kts | 25° |
| 2026-05-05 03:18 | 15.39940 | -25.72759 | 36976 ft | 537 kts | 25° |
| 2026-05-05 03:18 | 15.46380 | -25.68855 | 36989 ft | 537 kts | 24° |
| 2026-05-05 03:19 | 15.56034 | -25.62998 | 36977 ft | 537 kts | 24° |
| 2026-05-05 03:19 | 15.62449 | -25.59102 | 36972 ft | 537 kts | 25° |
| 2026-05-05 03:20 | 15.68897 | -25.55183 | 36978 ft | 537 kts | 25° |
| 2026-05-05 03:20 | 15.75348 | -25.51259 | 36976 ft | 536 kts | 25° |
| 2026-05-05 03:21 | 15.81792 | -25.47337 | 36994 ft | 536 kts | 24° |
| 2026-05-05 03:21 | 15.88201 | -25.43434 | 36981 ft | 537 kts | 24° |
| 2026-05-05 03:22 | 15.94661 | -25.39496 | 36979 ft | 536 kts | 24° |
| 2026-05-05 03:22 | 16.01085 | -25.35577 | 36973 ft | 536 kts | 24° |
| 2026-05-05 03:23 | 16.07501 | -25.31660 | 36976 ft | 536 kts | 24° |
| 2026-05-05 03:23 | 16.13924 | -25.27736 | 36996 ft | 536 kts | 24° |
| 2026-05-05 03:24 | 16.20373 | -25.23794 | 36973 ft | 537 kts | 24° |
| 2026-05-05 03:24 | 16.26819 | -25.19850 | 36969 ft | 537 kts | 24° |
| 2026-05-05 03:25 | 16.33254 | -25.15909 | 36967 ft | 537 kts | 24° |
| 2026-05-05 03:25 | 16.39653 | -25.11988 | 36968 ft | 537 kts | 24° |
| 2026-05-05 03:26 | 16.46088 | -25.08041 | 36964 ft | 537 kts | 24° |
| 2026-05-05 03:26 | 16.52524 | -25.04090 | 36965 ft | 537 kts | 24° |
| 2026-05-05 03:27 | 16.58957 | -25.00139 | 36959 ft | 537 kts | 24° |
| 2026-05-05 03:27 | 16.65382 | -24.96189 | 36964 ft | 537 kts | 24° |
| 2026-05-05 03:28 | 16.71797 | -24.92242 | 36968 ft | 537 kts | 24° |
| 2026-05-05 03:28 | 16.78244 | -24.88273 | 36965 ft | 537 kts | 24° |
| 2026-05-05 03:29 | 16.84682 | -24.84306 | 36974 ft | 537 kts | 23° |
| 2026-05-05 03:29 | 16.91080 | -24.80361 | 36967 ft | 538 kts | 23° |
| 2026-05-05 03:30 | 16.97515 | -24.76390 | 36989 ft | 538 kts | 23° |
| 2026-05-05 03:30 | 17.03952 | -24.72413 | 36990 ft | 538 kts | 23° |
| 2026-05-05 03:31 | 17.10385 | -24.68436 | 36984 ft | 538 kts | 23° |
| 2026-05-05 03:31 | 17.16832 | -24.64447 | 36993 ft | 538 kts | 23° |
| 2026-05-05 03:32 | 17.22178 | -24.61137 | 36999 ft | 538 kts | 23° |
| 2026-05-05 03:32 | 17.29684 | -24.56486 | 36997 ft | 539 kts | 23° |
| 2026-05-05 03:33 | 17.35081 | -24.53139 | 36994 ft | 539 kts | 23° |
| 2026-05-05 03:33 | 17.41494 | -24.49159 | 36994 ft | 539 kts | 23° |
| 2026-05-05 03:34 | 17.48998 | -24.44497 | 36994 ft | 538 kts | 23° |
| 2026-05-05 03:34 | 17.54393 | -24.41142 | 37008 ft | 539 kts | 23° |
| 2026-05-05 03:35 | 17.60824 | -24.37141 | 36992 ft | 539 kts | 23° |
| 2026-05-05 03:35 | 17.67264 | -24.33129 | 36990 ft | 539 kts | 23° |
| 2026-05-05 03:36 | 17.73685 | -24.29128 | 36994 ft | 539 kts | 23° |
| 2026-05-05 03:36 | 17.80132 | -24.25111 | 36991 ft | 539 kts | 23° |
| 2026-05-05 03:37 | 17.86565 | -24.21098 | 37015 ft | 539 kts | 23° |
| 2026-05-05 03:37 | 17.92991 | -24.17086 | 37000 ft | 540 kts | 23° |
| 2026-05-05 03:38 | 17.99469 | -24.13036 | 37001 ft | 540 kts | 23° |
| 2026-05-05 03:38 | 18.05891 | -24.09018 | 36997 ft | 540 kts | 23° |
| 2026-05-05 03:39 | 18.12355 | -24.04970 | 36999 ft | 540 kts | 23° |
| 2026-05-05 03:39 | 18.18813 | -24.00922 | 36997 ft | 540 kts | 23° |
| 2026-05-05 03:40 | 18.25249 | -23.96885 | 37000 ft | 541 kts | 23° |
| 2026-05-05 03:40 | 18.31680 | -23.92848 | 36996 ft | 541 kts | 23° |
| 2026-05-05 03:41 | 18.38145 | -23.88786 | 36993 ft | 540 kts | 23° |
| 2026-05-05 03:41 | 18.44604 | -23.84723 | 36995 ft | 540 kts | 23° |
| 2026-05-05 03:42 | 18.51049 | -23.80666 | 36993 ft | 540 kts | 23° |
| 2026-05-05 03:42 | 18.57454 | -23.76631 | 37009 ft | 540 kts | 23° |
| 2026-05-05 03:43 | 18.63919 | -23.72555 | 37002 ft | 540 kts | 23° |
| 2026-05-05 03:43 | 18.70375 | -23.68480 | 36997 ft | 540 kts | 23° |
| 2026-05-05 03:44 | 18.76781 | -23.64432 | 36998 ft | 540 kts | 23° |
| 2026-05-05 03:44 | 18.83239 | -23.60349 | 36998 ft | 540 kts | 23° |
| 2026-05-05 03:45 | 18.89663 | -23.56284 | 37024 ft | 539 kts | 23° |
| 2026-05-05 03:45 | 18.96100 | -23.52207 | 36996 ft | 539 kts | 23° |
| 2026-05-05 03:46 | 19.02529 | -23.48130 | 36998 ft | 539 kts | 23° |
| 2026-05-05 03:46 | 19.08932 | -23.44067 | 36996 ft | 539 kts | 23° |
| 2026-05-05 03:47 | 19.15360 | -23.39984 | 36995 ft | 539 kts | 23° |
| 2026-05-05 03:47 | 19.21798 | -23.35891 | 36993 ft | 539 kts | 23° |
| 2026-05-05 03:48 | 19.28222 | -23.31803 | 37005 ft | 539 kts | 23° |
| 2026-05-05 03:48 | 19.34619 | -23.27729 | 36992 ft | 539 kts | 24° |
| 2026-05-05 03:49 | 19.41024 | -23.23645 | 36992 ft | 539 kts | 24° |
| 2026-05-05 03:49 | 19.47456 | -23.19540 | 36999 ft | 538 kts | 24° |
| 2026-05-05 03:50 | 19.53855 | -23.15453 | 36996 ft | 538 kts | 24° |
| 2026-05-05 03:50 | 19.60256 | -23.11361 | 37019 ft | 538 kts | 24° |
| 2026-05-05 03:51 | 19.66612 | -23.07294 | 36994 ft | 537 kts | 24° |
| 2026-05-05 03:51 | 19.73005 | -23.03199 | 36999 ft | 536 kts | 24° |
| 2026-05-05 03:52 | 19.79386 | -22.99107 | 36999 ft | 536 kts | 24° |
| 2026-05-05 03:52 | 19.85770 | -22.95011 | 37000 ft | 535 kts | 24° |
| 2026-05-05 03:53 | 19.92118 | -22.90934 | 36997 ft | 535 kts | 24° |
| 2026-05-05 03:53 | 19.98487 | -22.86839 | 37001 ft | 535 kts | 24° |
| 2026-05-05 03:54 | 20.04861 | -22.82737 | 36996 ft | 535 kts | 24° |
| 2026-05-05 03:54 | 20.11213 | -22.78645 | 36999 ft | 536 kts | 24° |
| 2026-05-05 03:55 | 20.17590 | -22.74534 | 37000 ft | 536 kts | 24° |
| 2026-05-05 03:55 | 20.23969 | -22.70417 | 36994 ft | 536 kts | 24° |
| 2026-05-05 03:56 | 20.30340 | -22.66300 | 37003 ft | 536 kts | 24° |
| 2026-05-05 03:56 | 20.36715 | -22.62176 | 36998 ft | 535 kts | 24° |
| 2026-05-05 03:57 | 20.43064 | -22.58066 | 36998 ft | 534 kts | 24° |
| 2026-05-05 03:57 | 20.49382 | -22.53972 | 36999 ft | 533 kts | 24° |
| 2026-05-05 03:58 | 20.55708 | -22.49869 | 36999 ft | 532 kts | 24° |
| 2026-05-05 03:58 | 20.62022 | -22.45770 | 37018 ft | 532 kts | 25° |
| 2026-05-05 03:59 | 20.68327 | -22.41673 | 37004 ft | 532 kts | 25° |
| 2026-05-05 03:59 | 20.74614 | -22.37582 | 37001 ft | 531 kts | 25° |
| 2026-05-05 04:00 | 20.80912 | -22.33481 | 37004 ft | 531 kts | 25° |
| 2026-05-05 04:00 | 20.87214 | -22.29374 | 37006 ft | 530 kts | 25° |
| 2026-05-05 04:01 | 20.93502 | -22.25272 | 37033 ft | 531 kts | 25° |
| 2026-05-05 04:01 | 20.99814 | -22.21150 | 37005 ft | 531 kts | 25° |
| 2026-05-05 04:02 | 21.06115 | -22.17030 | 37002 ft | 531 kts | 25° |
| 2026-05-05 04:02 | 21.12413 | -22.12909 | 37005 ft | 531 kts | 25° |
| 2026-05-05 04:03 | 21.18690 | -22.08796 | 37005 ft | 531 kts | 25° |
| 2026-05-05 04:03 | 21.25010 | -22.04651 | 37005 ft | 531 kts | 25° |
| 2026-05-05 04:04 | 21.31306 | -22.00518 | 37002 ft | 531 kts | 25° |
| 2026-05-05 04:04 | 21.37591 | -21.96388 | 37009 ft | 531 kts | 25° |
| 2026-05-05 04:05 | 21.43898 | -21.92241 | 37006 ft | 531 kts | 25° |
| 2026-05-05 04:05 | 21.50152 | -21.88124 | 37007 ft | 531 kts | 25° |
| 2026-05-05 04:06 | 21.56473 | -21.83957 | 37003 ft | 530 kts | 25° |
| 2026-05-05 04:06 | 21.62733 | -21.79826 | 37029 ft | 531 kts | 25° |
| 2026-05-05 04:07 | 21.69007 | -21.75682 | 37016 ft | 531 kts | 25° |
| 2026-05-05 04:07 | 21.75320 | -21.71507 | 37009 ft | 531 kts | 25° |
| 2026-05-05 04:08 | 21.81626 | -21.67332 | 37008 ft | 532 kts | 25° |
| 2026-05-05 04:08 | 21.87888 | -21.63183 | 37012 ft | 532 kts | 25° |
| 2026-05-05 04:09 | 21.94219 | -21.58983 | 37009 ft | 532 kts | 25° |
| 2026-05-05 04:09 | 22.00493 | -21.54817 | 37012 ft | 533 kts | 25° |
| 2026-05-05 04:10 | 22.06815 | -21.50614 | 37011 ft | 533 kts | 25° |
| 2026-05-05 04:10 | 22.13107 | -21.46426 | 37014 ft | 533 kts | 25° |
| 2026-05-05 04:11 | 22.19434 | -21.42212 | 37012 ft | 533 kts | 25° |
| 2026-05-05 04:11 | 22.25727 | -21.38015 | 37011 ft | 533 kts | 25° |
| 2026-05-05 04:12 | 22.32018 | -21.33815 | 37009 ft | 534 kts | 25° |
| 2026-05-05 04:12 | 22.38347 | -21.29585 | 37011 ft | 534 kts | 25° |
| 2026-05-05 04:13 | 22.44673 | -21.25353 | 37010 ft | 534 kts | 25° |
| 2026-05-05 04:13 | 22.50990 | -21.21121 | 37011 ft | 534 kts | 25° |
| 2026-05-05 04:14 | 22.57276 | -21.16906 | 37012 ft | 534 kts | 25° |
| 2026-05-05 04:14 | 22.63609 | -21.12655 | 37031 ft | 534 kts | 25° |
| 2026-05-05 04:15 | 22.69919 | -21.08416 | 37019 ft | 534 kts | 25° |
| 2026-05-05 04:15 | 22.76221 | -21.04175 | 37014 ft | 535 kts | 25° |
| 2026-05-05 04:16 | 22.82553 | -20.99911 | 37011 ft | 535 kts | 25° |
| 2026-05-05 04:16 | 22.88855 | -20.95662 | 37011 ft | 535 kts | 25° |
| 2026-05-05 04:17 | 22.95186 | -20.91387 | 37052 ft | 535 kts | 25° |
| 2026-05-05 04:17 | 23.01481 | -20.87133 | 37014 ft | 536 kts | 25° |
| 2026-05-05 04:18 | 23.07829 | -20.82839 | 37010 ft | 536 kts | 25° |
| 2026-05-05 04:18 | 23.14180 | -20.78541 | 37011 ft | 537 kts | 25° |
| 2026-05-05 04:19 | 23.20503 | -20.74259 | 37011 ft | 537 kts | 25° |
| 2026-05-05 04:19 | 23.26835 | -20.69963 | 37010 ft | 537 kts | 25° |
| 2026-05-05 04:20 | 23.33186 | -20.65649 | 37011 ft | 537 kts | 25° |
| 2026-05-05 04:20 | 23.39522 | -20.61340 | 37011 ft | 537 kts | 25° |
| 2026-05-05 04:21 | 23.45867 | -20.57020 | 37010 ft | 537 kts | 25° |
| 2026-05-05 04:21 | 23.52166 | -20.52727 | 37011 ft | 537 kts | 25° |
| 2026-05-05 04:22 | 23.58512 | -20.48396 | 37010 ft | 537 kts | 25° |
| 2026-05-05 04:22 | 23.64821 | -20.44086 | 37013 ft | 538 kts | 25° |
| 2026-05-05 04:23 | 23.71168 | -20.39746 | 37012 ft | 538 kts | 25° |
| 2026-05-05 04:23 | 23.77528 | -20.35391 | 37013 ft | 538 kts | 25° |
| 2026-05-05 04:24 | 23.83840 | -20.31064 | 37013 ft | 539 kts | 25° |
| 2026-05-05 04:25 | 23.93391 | -20.24506 | 37017 ft | 539 kts | 25° |
| 2026-05-05 04:25 | 23.99754 | -20.20132 | 37022 ft | 540 kts | 25° |
| 2026-05-05 04:26 | 24.06097 | -20.15765 | 37020 ft | 540 kts | 25° |
| 2026-05-05 04:26 | 24.12468 | -20.11374 | 37016 ft | 540 kts | 25° |
| 2026-05-05 04:27 | 24.18803 | -20.07002 | 37016 ft | 540 kts | 25° |
| 2026-05-05 04:27 | 24.25164 | -20.02608 | 37014 ft | 540 kts | 25° |
| 2026-05-05 04:28 | 24.31537 | -19.98200 | 37010 ft | 540 kts | 26° |
| 2026-05-05 04:28 | 24.37864 | -19.93818 | 37035 ft | 540 kts | 26° |
| 2026-05-05 04:29 | 24.44214 | -19.89415 | 37015 ft | 539 kts | 26° |
| 2026-05-05 04:29 | 24.50542 | -19.85022 | 37017 ft | 539 kts | 26° |
| 2026-05-05 04:30 | 24.56897 | -19.80605 | 37018 ft | 539 kts | 26° |
| 2026-05-05 04:30 | 24.63198 | -19.76221 | 37032 ft | 539 kts | 26° |
| 2026-05-05 04:31 | 24.69540 | -19.71802 | 37022 ft | 539 kts | 26° |
| 2026-05-05 04:31 | 24.75853 | -19.67398 | 37017 ft | 539 kts | 26° |
| 2026-05-05 04:32 | 24.82193 | -19.62970 | 37019 ft | 538 kts | 26° |
| 2026-05-05 04:32 | 24.88493 | -19.58564 | 37019 ft | 538 kts | 26° |
| 2026-05-05 04:33 | 24.94824 | -19.54131 | 37056 ft | 539 kts | 26° |
| 2026-05-05 04:33 | 25.01132 | -19.49709 | 37027 ft | 540 kts | 26° |
| 2026-05-05 04:34 | 25.07489 | -19.45246 | 37013 ft | 540 kts | 26° |
| 2026-05-05 04:34 | 25.13835 | -19.40783 | 37023 ft | 540 kts | 26° |
| 2026-05-05 04:35 | 25.20160 | -19.36328 | 37023 ft | 540 kts | 26° |
| 2026-05-05 04:35 | 25.26473 | -19.31877 | 37059 ft | 540 kts | 26° |
| 2026-05-05 04:36 | 25.32829 | -19.27390 | 37030 ft | 541 kts | 26° |
| 2026-05-05 04:36 | 25.38115 | -19.23654 | 37024 ft | 542 kts | 26° |
| 2026-05-05 04:37 | 25.44447 | -19.19173 | 37025 ft | 542 kts | 26° |
| 2026-05-05 04:37 | 25.50829 | -19.14651 | 37025 ft | 543 kts | 26° |
| 2026-05-05 04:38 | 25.57165 | -19.10156 | 37021 ft | 543 kts | 26° |
| 2026-05-05 04:38 | 25.63517 | -19.05644 | 37028 ft | 544 kts | 26° |
| 2026-05-05 04:39 | 25.69898 | -19.01105 | 37027 ft | 544 kts | 26° |
| 2026-05-05 04:39 | 25.76276 | -18.96562 | 37025 ft | 545 kts | 26° |
| 2026-05-05 04:40 | 25.82665 | -18.92006 | 37022 ft | 545 kts | 26° |
| 2026-05-05 04:40 | 25.89021 | -18.87466 | 37031 ft | 545 kts | 26° |
| 2026-05-05 04:41 | 25.95388 | -18.82914 | 37025 ft | 547 kts | 26° |
| 2026-05-05 04:41 | 26.01805 | -18.78321 | 37030 ft | 547 kts | 26° |
| 2026-05-05 04:42 | 26.08221 | -18.73724 | 37030 ft | 548 kts | 26° |
| 2026-05-05 04:42 | 26.14598 | -18.69148 | 37027 ft | 548 kts | 26° |
| 2026-05-05 04:43 | 26.20985 | -18.64556 | 37026 ft | 548 kts | 26° |
| 2026-05-05 04:43 | 26.27427 | -18.59920 | 37032 ft | 549 kts | 26° |
| 2026-05-05 04:44 | 26.33821 | -18.55312 | 37034 ft | 550 kts | 26° |
| 2026-05-05 04:44 | 26.40262 | -18.50664 | 37026 ft | 550 kts | 27° |
| 2026-05-05 04:45 | 26.46677 | -18.46028 | 37029 ft | 551 kts | 27° |
| 2026-05-05 04:45 | 26.53117 | -18.41367 | 37038 ft | 551 kts | 26° |
| 2026-05-05 04:46 | 26.59533 | -18.36719 | 37029 ft | 551 kts | 26° |
| 2026-05-05 04:46 | 26.65965 | -18.32053 | 37033 ft | 551 kts | 26° |
| 2026-05-05 04:47 | 26.72420 | -18.27362 | 37035 ft | 551 kts | 27° |
| 2026-05-05 04:47 | 26.78835 | -18.22694 | 37031 ft | 552 kts | 27° |
| 2026-05-05 04:48 | 26.85275 | -18.18002 | 37030 ft | 551 kts | 27° |
| 2026-05-05 04:48 | 26.91679 | -18.13331 | 37020 ft | 553 kts | 27° |
| 2026-05-05 04:49 | 26.98149 | -18.08604 | 37033 ft | 553 kts | 27° |
| 2026-05-05 04:49 | 27.04586 | -18.03895 | 37019 ft | 553 kts | 27° |
| 2026-05-05 04:50 | 27.11016 | -17.99184 | 37035 ft | 553 kts | 27° |
| 2026-05-05 04:50 | 27.17479 | -17.94442 | 37039 ft | 553 kts | 27° |
| 2026-05-05 04:51 | 27.23895 | -17.89729 | 37034 ft | 554 kts | 27° |
| 2026-05-05 04:51 | 27.30352 | -17.84979 | 37032 ft | 554 kts | 27° |
| 2026-05-05 04:52 | 27.36784 | -17.80240 | 37035 ft | 554 kts | 27° |
| 2026-05-05 04:52 | 27.43252 | -17.75468 | 37030 ft | 554 kts | 27° |
| 2026-05-05 04:53 | 27.49677 | -17.70720 | 37038 ft | 554 kts | 27° |
| 2026-05-05 04:53 | 27.56139 | -17.65940 | 37044 ft | 555 kts | 27° |
| 2026-05-05 04:54 | 27.62556 | -17.61185 | 37033 ft | 554 kts | 27° |
| 2026-05-05 04:54 | 27.68995 | -17.56407 | 37036 ft | 554 kts | 27° |
| 2026-05-05 04:55 | 27.75453 | -17.51607 | 37041 ft | 554 kts | 27° |
| 2026-05-05 04:55 | 27.81873 | -17.46830 | 37036 ft | 554 kts | 27° |
| 2026-05-05 04:56 | 27.88308 | -17.42035 | 37034 ft | 555 kts | 27° |
| 2026-05-05 04:56 | 27.94728 | -17.37242 | 37052 ft | 554 kts | 27° |
| 2026-05-05 04:57 | 28.01237 | -17.32493 | 37143 ft | 554 kts | 22° |
| 2026-05-05 04:57 | 28.04588 | -17.30439 | 37436 ft | 551 kts | 20° |
| 2026-05-05 04:57 | 28.07994 | -17.28431 | 37798 ft | 548 kts | 20° |
| 2026-05-05 04:57 | 28.11373 | -17.26470 | 38109 ft | 546 kts | 20° |
| 2026-05-05 04:58 | 28.14758 | -17.24501 | 38070 ft | 547 kts | 20° |
| 2026-05-05 04:58 | 28.21523 | -17.20517 | 38053 ft | 547 kts | 20° |
| 2026-05-05 04:59 | 28.28259 | -17.16506 | 38045 ft | 548 kts | 21° |
| 2026-05-05 04:59 | 28.34971 | -17.12491 | 38041 ft | 548 kts | 21° |
| 2026-05-05 05:00 | 28.41737 | -17.08442 | 38040 ft | 548 kts | 20° |
| 2026-05-05 05:00 | 28.48496 | -17.04395 | 38027 ft | 549 kts | 21° |
| 2026-05-05 05:01 | 28.55205 | -17.00370 | 38053 ft | 548 kts | 21° |
| 2026-05-05 05:01 | 28.61945 | -16.96322 | 38032 ft | 547 kts | 21° |
| 2026-05-05 05:02 | 28.68699 | -16.92260 | 38039 ft | 546 kts | 21° |
| 2026-05-05 05:02 | 28.75383 | -16.88235 | 38085 ft | 546 kts | 21° |
| 2026-05-05 05:03 | 28.82114 | -16.84175 | 38049 ft | 546 kts | 21° |
| 2026-05-05 05:03 | 28.88815 | -16.80127 | 38046 ft | 545 kts | 21° |
| 2026-05-05 05:04 | 28.95531 | -16.76064 | 38048 ft | 545 kts | 21° |
| 2026-05-05 05:04 | 29.02196 | -16.72025 | 38049 ft | 544 kts | 21° |
| 2026-05-05 05:05 | 29.08887 | -16.67966 | 38061 ft | 544 kts | 21° |
| 2026-05-05 05:05 | 29.15578 | -16.63899 | 38047 ft | 544 kts | 21° |
| 2026-05-05 05:06 | 29.22266 | -16.59829 | 38044 ft | 543 kts | 21° |
| 2026-05-05 05:06 | 29.28896 | -16.55788 | 38047 ft | 543 kts | 21° |
| 2026-05-05 05:07 | 29.35563 | -16.51718 | 38052 ft | 542 kts | 21° |
| 2026-05-05 05:07 | 29.42221 | -16.47649 | 38044 ft | 542 kts | 21° |
| 2026-05-05 05:08 | 29.48849 | -16.43590 | 38045 ft | 541 kts | 21° |
| 2026-05-05 05:08 | 29.55508 | -16.39506 | 38051 ft | 540 kts | 21° |
| 2026-05-05 05:09 | 29.62121 | -16.35446 | 38063 ft | 539 kts | 21° |
| 2026-05-05 05:09 | 29.68740 | -16.31375 | 38066 ft | 539 kts | 21° |
| 2026-05-05 05:10 | 29.75318 | -16.27322 | 38049 ft | 539 kts | 21° |
| 2026-05-05 05:10 | 29.81964 | -16.23221 | 38061 ft | 540 kts | 21° |
| 2026-05-05 05:11 | 29.88559 | -16.19145 | 38045 ft | 540 kts | 21° |
| 2026-05-05 05:11 | 29.95183 | -16.15044 | 38084 ft | 541 kts | 22° |
| 2026-05-05 05:12 | 30.01811 | -16.10934 | 38053 ft | 540 kts | 22° |
| 2026-05-05 05:12 | 30.08434 | -16.06820 | 38053 ft | 539 kts | 22° |
| 2026-05-05 05:13 | 30.14997 | -16.02738 | 38056 ft | 538 kts | 22° |
| 2026-05-05 05:13 | 30.21584 | -15.98636 | 38049 ft | 537 kts | 22° |
| 2026-05-05 05:14 | 30.28143 | -15.94544 | 38076 ft | 535 kts | 22° |
| 2026-05-05 05:14 | 30.34700 | -15.90447 | 38060 ft | 534 kts | 22° |
| 2026-05-05 05:15 | 30.41228 | -15.86362 | 38059 ft | 532 kts | 22° |
| 2026-05-05 05:15 | 30.47724 | -15.82294 | 38061 ft | 531 kts | 22° |
| 2026-05-05 05:16 | 30.54234 | -15.78217 | 38060 ft | 531 kts | 22° |
| 2026-05-05 05:16 | 30.60733 | -15.74140 | 38059 ft | 530 kts | 23° |
| 2026-05-05 05:17 | 30.67192 | -15.70079 | 38067 ft | 528 kts | 23° |
| 2026-05-05 05:17 | 30.73605 | -15.66041 | 38061 ft | 526 kts | 23° |
| 2026-05-05 05:18 | 30.80039 | -15.61983 | 38065 ft | 525 kts | 22° |
| 2026-05-05 05:18 | 30.86452 | -15.57935 | 38098 ft | 525 kts | 23° |
| 2026-05-05 05:19 | 30.92860 | -15.53883 | 38071 ft | 524 kts | 24° |
| 2026-05-05 05:19 | 30.99283 | -15.49813 | 38068 ft | 523 kts | 24° |
| 2026-05-05 05:20 | 31.05653 | -15.45771 | 38070 ft | 523 kts | 24° |
| 2026-05-05 05:20 | 31.12046 | -15.41709 | 38070 ft | 522 kts | 24° |
| 2026-05-05 05:21 | 31.18429 | -15.37647 | 38073 ft | 522 kts | 24° |
| 2026-05-05 05:21 | 31.24762 | -15.33609 | 38072 ft | 521 kts | 24° |
| 2026-05-05 05:22 | 31.31105 | -15.29481 | 38063 ft | 522 kts | 28° |
| 2026-05-05 05:22 | 31.37200 | -15.24825 | 38075 ft | 523 kts | 30° |
| 2026-05-05 05:23 | 31.43245 | -15.20061 | 38100 ft | 523 kts | 30° |
| 2026-05-05 05:23 | 31.49298 | -15.15311 | 38071 ft | 523 kts | 30° |
| 2026-05-05 05:24 | 31.55315 | -15.10618 | 38074 ft | 522 kts | 30° |
| 2026-05-05 05:24 | 31.61376 | -15.05897 | 38072 ft | 521 kts | 30° |
| 2026-05-05 05:25 | 31.66396 | -15.01980 | 38073 ft | 520 kts | 30° |
| 2026-05-05 05:25 | 31.73418 | -14.96490 | 38091 ft | 520 kts | 30° |
| 2026-05-05 05:26 | 31.79438 | -14.91774 | 38069 ft | 518 kts | 30° |
| 2026-05-05 05:26 | 31.85383 | -14.87109 | 38077 ft | 516 kts | 30° |
| 2026-05-05 05:27 | 31.90372 | -14.83189 | 38075 ft | 515 kts | 30° |
| 2026-05-05 05:27 | 31.99285 | -14.76173 | 38081 ft | 514 kts | 30° |
| 2026-05-05 05:28 | 32.05239 | -14.71477 | 38089 ft | 514 kts | 31° |
| 2026-05-05 05:28 | 32.11156 | -14.66802 | 38087 ft | 513 kts | 31° |
| 2026-05-05 05:29 | 32.17081 | -14.62113 | 38089 ft | 512 kts | 31° |
| 2026-05-05 05:29 | 32.23006 | -14.57418 | 38075 ft | 512 kts | 31° |
| 2026-05-05 05:30 | 32.28923 | -14.52721 | 38091 ft | 512 kts | 30° |
| 2026-05-05 05:30 | 32.34821 | -14.48033 | 38079 ft | 513 kts | 31° |
| 2026-05-05 05:31 | 32.40752 | -14.43309 | 38094 ft | 513 kts | 31° |
| 2026-05-05 05:31 | 32.46633 | -14.38617 | 38087 ft | 513 kts | 31° |
| 2026-05-05 05:32 | 32.52549 | -14.33891 | 38098 ft | 513 kts | 31° |
| 2026-05-05 05:32 | 32.58462 | -14.29159 | 38089 ft | 512 kts | 31° |
| 2026-05-05 05:33 | 32.64360 | -14.24432 | 38086 ft | 512 kts | 31° |
| 2026-05-05 05:33 | 32.70238 | -14.19713 | 38094 ft | 512 kts | 31° |
| 2026-05-05 05:34 | 32.76140 | -14.14967 | 38089 ft | 512 kts | 31° |
| 2026-05-05 05:34 | 32.82038 | -14.10217 | 38093 ft | 512 kts | 31° |
| 2026-05-05 05:35 | 32.87947 | -14.05450 | 38091 ft | 512 kts | 31° |
| 2026-05-05 05:35 | 32.93835 | -14.00691 | 38095 ft | 512 kts | 31° |
| 2026-05-05 05:36 | 32.99702 | -13.95941 | 38090 ft | 511 kts | 31° |
| 2026-05-05 05:36 | 33.05576 | -13.91179 | 38099 ft | 510 kts | 31° |
| 2026-05-05 05:37 | 33.11419 | -13.86433 | 38098 ft | 509 kts | 31° |
| 2026-05-05 05:37 | 33.17252 | -13.81686 | 38100 ft | 508 kts | 31° |
| 2026-05-05 05:38 | 33.23091 | -13.76906 | 38107 ft | 506 kts | 31° |
| 2026-05-05 05:38 | 33.28862 | -13.72167 | 38099 ft | 505 kts | 31° |
| 2026-05-05 05:39 | 33.34652 | -13.67408 | 38094 ft | 503 kts | 31° |
| 2026-05-05 05:39 | 33.40417 | -13.62663 | 38104 ft | 502 kts | 31° |
| 2026-05-05 05:40 | 33.46146 | -13.57940 | 38106 ft | 502 kts | 31° |
| 2026-05-05 05:40 | 33.51913 | -13.53180 | 38110 ft | 502 kts | 31° |
| 2026-05-05 05:41 | 33.57661 | -13.48425 | 38098 ft | 502 kts | 31° |
| 2026-05-05 05:41 | 33.63373 | -13.43693 | 38110 ft | 502 kts | 31° |
| 2026-05-05 05:42 | 33.69129 | -13.38917 | 38110 ft | 503 kts | 31° |
| 2026-05-05 05:42 | 33.74900 | -13.34120 | 38134 ft | 503 kts | 31° |
| 2026-05-05 05:43 | 33.80631 | -13.29348 | 38118 ft | 504 kts | 32° |
| 2026-05-05 05:43 | 33.86409 | -13.24529 | 38109 ft | 504 kts | 32° |
| 2026-05-05 05:44 | 33.92171 | -13.19714 | 38113 ft | 503 kts | 32° |
| 2026-05-05 05:44 | 33.97912 | -13.14911 | 38109 ft | 503 kts | 32° |
| 2026-05-05 05:45 | 34.03645 | -13.10105 | 38135 ft | 503 kts | 32° |
| 2026-05-05 05:45 | 34.09361 | -13.05306 | 38119 ft | 503 kts | 32° |
| 2026-05-05 05:46 | 34.15105 | -13.00473 | 38123 ft | 502 kts | 32° |
| 2026-05-05 05:46 | 34.20851 | -12.95632 | 38121 ft | 502 kts | 32° |
| 2026-05-05 05:47 | 34.26552 | -12.90822 | 38104 ft | 502 kts | 32° |
| 2026-05-05 05:47 | 34.32316 | -12.85987 | 38133 ft | 502 kts | 31° |
| 2026-05-05 05:48 | 34.38042 | -12.81196 | 38112 ft | 503 kts | 31° |
| 2026-05-05 05:48 | 34.43808 | -12.76361 | 38116 ft | 503 kts | 31° |
| 2026-05-05 05:49 | 34.49533 | -12.71545 | 38119 ft | 503 kts | 31° |
| 2026-05-05 05:49 | 34.55297 | -12.66687 | 38117 ft | 504 kts | 31° |
| 2026-05-05 05:50 | 34.61069 | -12.61814 | 38127 ft | 504 kts | 31° |
| 2026-05-05 05:50 | 34.66788 | -12.56977 | 38116 ft | 503 kts | 31° |
| 2026-05-05 05:51 | 34.72535 | -12.52108 | 38116 ft | 502 kts | 31° |
| 2026-05-05 05:51 | 34.78224 | -12.47280 | 38117 ft | 501 kts | 31° |
| 2026-05-05 05:52 | 34.83944 | -12.42419 | 38121 ft | 500 kts | 31° |
| 2026-05-05 05:52 | 34.89623 | -12.37582 | 38134 ft | 500 kts | 31° |
| 2026-05-05 05:53 | 34.95316 | -12.32727 | 38123 ft | 499 kts | 31° |
| 2026-05-05 05:53 | 35.01010 | -12.27861 | 38119 ft | 498 kts | 31° |
| 2026-05-05 05:54 | 35.06654 | -12.23030 | 38121 ft | 497 kts | 31° |
| 2026-05-05 05:54 | 35.12325 | -12.18168 | 38127 ft | 497 kts | 31° |
| 2026-05-05 05:55 | 35.17990 | -12.13302 | 38126 ft | 498 kts | 31° |
| 2026-05-05 05:55 | 35.23658 | -12.08426 | 38126 ft | 498 kts | 31° |
| 2026-05-05 05:56 | 35.29293 | -12.03569 | 38131 ft | 498 kts | 31° |
| 2026-05-05 05:56 | 35.34958 | -11.98678 | 38127 ft | 498 kts | 31° |
| 2026-05-05 05:57 | 35.40639 | -11.93764 | 38129 ft | 499 kts | 31° |
| 2026-05-05 05:57 | 35.46284 | -11.88873 | 38127 ft | 499 kts | 31° |
| 2026-05-05 05:58 | 35.51956 | -11.83950 | 38131 ft | 499 kts | 32° |
| 2026-05-05 05:58 | 35.57632 | -11.79015 | 38131 ft | 499 kts | 32° |
| 2026-05-05 05:59 | 35.68828 | -11.69253 | 38144 ft | 499 kts | 32° |
| 2026-05-05 06:00 | 35.74487 | -11.64307 | 38132 ft | 500 kts | 32° |
| 2026-05-05 06:00 | 35.80167 | -11.59333 | 38134 ft | 500 kts | 32° |
| 2026-05-05 06:01 | 35.85841 | -11.54355 | 38133 ft | 500 kts | 32° |
| 2026-05-05 06:01 | 35.91512 | -11.49369 | 38130 ft | 500 kts | 32° |
| 2026-05-05 06:02 | 35.97156 | -11.44455 | 38142 ft | 498 kts | 28° |
| 2026-05-05 06:02 | 36.03121 | -11.40109 | 38138 ft | 496 kts | 25° |
| 2026-05-05 06:03 | 36.09139 | -11.35900 | 38132 ft | 496 kts | 25° |
| 2026-05-05 06:03 | 36.15100 | -11.31695 | 38139 ft | 496 kts | 26° |
| 2026-05-05 06:04 | 36.21105 | -11.27413 | 38132 ft | 496 kts | 26° |
| 2026-05-05 06:04 | 36.27059 | -11.23145 | 38143 ft | 497 kts | 26° |
| 2026-05-05 06:05 | 36.33046 | -11.18845 | 38138 ft | 496 kts | 26° |
| 2026-05-05 06:05 | 36.39025 | -11.14546 | 38134 ft | 496 kts | 26° |
| 2026-05-05 06:06 | 36.44967 | -11.10267 | 38137 ft | 495 kts | 26° |
| 2026-05-05 06:06 | 36.50930 | -11.05966 | 38150 ft | 495 kts | 26° |
| 2026-05-05 06:07 | 36.56865 | -11.01677 | 38141 ft | 495 kts | 26° |
| 2026-05-05 06:07 | 36.62838 | -10.97353 | 38143 ft | 495 kts | 26° |
| 2026-05-05 06:08 | 36.68797 | -10.93031 | 38131 ft | 495 kts | 26° |
| 2026-05-05 06:08 | 36.74720 | -10.88728 | 38157 ft | 496 kts | 26° |
| 2026-05-05 06:09 | 36.80686 | -10.84385 | 38135 ft | 496 kts | 26° |
| 2026-05-05 06:09 | 36.86646 | -10.80038 | 38135 ft | 496 kts | 26° |
| 2026-05-05 06:10 | 36.92604 | -10.75686 | 38136 ft | 496 kts | 26° |
| 2026-05-05 06:10 | 36.98525 | -10.71352 | 38135 ft | 496 kts | 26° |
| 2026-05-05 06:11 | 37.04479 | -10.66986 | 38134 ft | 495 kts | 25° |
| 2026-05-05 06:11 | 37.07438 | -10.64810 | 37919 ft | 487 kts | 25° |
| 2026-05-05 06:11 | 37.10343 | -10.62671 | 37404 ft | 485 kts | 25° |
| 2026-05-05 06:12 | 37.13283 | -10.60511 | 36668 ft | 492 kts | 25° |
| 2026-05-05 06:12 | 37.16225 | -10.58351 | 36084 ft | 496 kts | 25° |
| 2026-05-05 06:12 | 37.19202 | -10.56159 | 35706 ft | 495 kts | 25° |
| 2026-05-05 06:12 | 37.22160 | -10.53975 | 35406 ft | 492 kts | 25° |
| 2026-05-05 06:13 | 37.25104 | -10.51797 | 35168 ft | 488 kts | 24° |
| 2026-05-05 06:13 | 37.28029 | -10.49633 | 34907 ft | 485 kts | 24° |
| 2026-05-05 06:13 | 37.30900 | -10.47509 | 34611 ft | 484 kts | 24° |
| 2026-05-05 06:13 | 37.33793 | -10.45367 | 34280 ft | 482 kts | 24° |
| 2026-05-05 06:14 | 37.36676 | -10.43231 | 33930 ft | 481 kts | 24° |
| 2026-05-05 06:14 | 37.39552 | -10.41099 | 33585 ft | 478 kts | 24° |
| 2026-05-05 06:14 | 37.42414 | -10.38975 | 33283 ft | 475 kts | 24° |
| 2026-05-05 06:14 | 37.45266 | -10.36855 | 32983 ft | 472 kts | 24° |
| 2026-05-05 06:15 | 37.48056 | -10.34780 | 32684 ft | 470 kts | 24° |
| 2026-05-05 06:15 | 37.50873 | -10.32684 | 32400 ft | 467 kts | 24° |
| 2026-05-05 06:15 | 37.53675 | -10.30597 | 32064 ft | 466 kts | 24° |
| 2026-05-05 06:15 | 37.56462 | -10.28519 | 31756 ft | 464 kts | 24° |
| 2026-05-05 06:16 | 37.59235 | -10.26450 | 31477 ft | 461 kts | 24° |
| 2026-05-05 06:16 | 37.61992 | -10.24390 | 31180 ft | 459 kts | 24° |
| 2026-05-05 06:16 | 37.64737 | -10.22338 | 30902 ft | 456 kts | 24° |
| 2026-05-05 06:16 | 37.67420 | -10.20331 | 30650 ft | 454 kts | 24° |
| 2026-05-05 06:17 | 37.70136 | -10.18297 | 30351 ft | 453 kts | 23° |
| 2026-05-05 06:17 | 37.72813 | -10.16130 | 29994 ft | 457 kts | 32° |
| 2026-05-05 06:17 | 37.75184 | -10.13415 | 29653 ft | 461 kts | 39° |
| 2026-05-05 06:17 | 37.77414 | -10.10517 | 29397 ft | 460 kts | 40° |
| 2026-05-05 06:18 | 37.79621 | -10.07587 | 29123 ft | 457 kts | 40° |
| 2026-05-05 06:18 | 37.81794 | -10.04735 | 28854 ft | 454 kts | 40° |
| 2026-05-05 06:18 | 37.84006 | -10.01890 | 28581 ft | 451 kts | 39° |
| 2026-05-05 06:18 | 37.86221 | -9.99085 | 28300 ft | 448 kts | 39° |
| 2026-05-05 06:19 | 37.88434 | -9.96306 | 28018 ft | 446 kts | 39° |
| 2026-05-05 06:19 | 37.90631 | -9.93551 | 27761 ft | 444 kts | 39° |
| 2026-05-05 06:19 | 37.92824 | -9.90799 | 27491 ft | 441 kts | 39° |
| 2026-05-05 06:19 | 37.94998 | -9.88065 | 27229 ft | 439 kts | 39° |
| 2026-05-05 06:20 | 37.97163 | -9.85338 | 26990 ft | 437 kts | 39° |
| 2026-05-05 06:20 | 37.99271 | -9.82568 | 26690 ft | 437 kts | 46° |
| 2026-05-05 06:20 | 38.00809 | -9.79254 | 26235 ft | 449 kts | 68° |
| 2026-05-05 06:20 | 38.01716 | -9.75473 | 25908 ft | 448 kts | 71° |
| 2026-05-05 06:21 | 38.02605 | -9.71693 | 25660 ft | 446 kts | 70° |
| 2026-05-05 06:21 | 38.03514 | -9.67942 | 25457 ft | 443 kts | 70° |
| 2026-05-05 06:21 | 38.04433 | -9.64223 | 25258 ft | 440 kts | 70° |
| 2026-05-05 06:21 | 38.05359 | -9.60522 | 25046 ft | 438 kts | 70° |
| 2026-05-05 06:22 | 38.06283 | -9.56844 | 24823 ft | 436 kts | 70° |
| 2026-05-05 06:22 | 38.07203 | -9.53184 | 24604 ft | 434 kts | 70° |
| 2026-05-05 06:22 | 38.08108 | -9.49580 | 24395 ft | 432 kts | 70° |
| 2026-05-05 06:22 | 38.09017 | -9.45952 | 24207 ft | 430 kts | 70° |
| 2026-05-05 06:23 | 38.09926 | -9.42318 | 23950 ft | 431 kts | 70° |
| 2026-05-05 06:23 | 38.10830 | -9.38696 | 23726 ft | 430 kts | 70° |
| 2026-05-05 06:23 | 38.11728 | -9.35089 | 23500 ft | 427 kts | 70° |
| 2026-05-05 06:23 | 38.12622 | -9.31498 | 23302 ft | 425 kts | 70° |
| 2026-05-05 06:24 | 38.13507 | -9.27934 | 23082 ft | 423 kts | 70° |
| 2026-05-05 06:24 | 38.14094 | -9.25568 | 22932 ft | 421 kts | 70° |
| 2026-05-05 06:24 | 38.15258 | -9.20867 | 22639 ft | 419 kts | 70° |
| 2026-05-05 06:24 | 38.15848 | -9.18487 | 22496 ft | 418 kts | 70° |
| 2026-05-05 06:25 | 38.16707 | -9.15012 | 22285 ft | 416 kts | 70° |
| 2026-05-05 06:25 | 38.17591 | -9.11522 | 22063 ft | 411 kts | 66° |
| 2026-05-05 06:25 | 38.18963 | -9.08384 | 21788 ft | 399 kts | 44° |
| 2026-05-05 06:25 | 38.20824 | -9.05846 | 21721 ft | 388 kts | 41° |
| 2026-05-05 06:26 | 38.22641 | -9.03339 | 21679 ft | 383 kts | 43° |
| 2026-05-05 06:26 | 38.24402 | -9.00817 | 21636 ft | 378 kts | 43° |
| 2026-05-05 06:26 | 38.26125 | -8.98313 | 21604 ft | 373 kts | 44° |
| 2026-05-05 06:26 | 38.27828 | -8.95912 | 21534 ft | 362 kts | 36° |
| 2026-05-05 06:27 | 38.29891 | -8.94258 | 21390 ft | 342 kts | 12° |
| 2026-05-05 06:27 | 38.34319 | -8.94110 | 21123 ft | 308 kts | 338° |
| 2026-05-05 06:27 | 38.36318 | -8.95016 | 20875 ft | 302 kts | 327° |
| 2026-05-05 06:28 | 38.37964 | -8.96557 | 20572 ft | 289 kts | 302° |
| 2026-05-05 06:28 | 38.38705 | -8.98874 | 20274 ft | 284 kts | 276° |
| 2026-05-05 06:28 | 38.38616 | -9.01391 | 20057 ft | 285 kts | 263° |
| 2026-05-05 06:28 | 38.38146 | -9.03893 | 19519 ft | 308 kts | 252° |
| 2026-05-05 06:29 | 38.37085 | -9.06398 | 18874 ft | 327 kts | 240° |
| 2026-05-05 06:29 | 38.35775 | -9.08814 | 18212 ft | 334 kts | 239° |
| 2026-05-05 06:29 | 38.34545 | -9.11340 | 17452 ft | 333 kts | 250° |
| 2026-05-05 06:29 | 38.33979 | -9.14148 | 16711 ft | 320 kts | 264° |
| 2026-05-05 06:30 | 38.33662 | -9.16886 | 16005 ft | 309 kts | 263° |
| 2026-05-05 06:30 | 38.33285 | -9.19536 | 15324 ft | 306 kts | 262° |
| 2026-05-05 06:30 | 38.32884 | -9.22192 | 14648 ft | 304 kts | 263° |
| 2026-05-05 06:30 | 38.32790 | -9.24879 | 13982 ft | 307 kts | 280° |
| 2026-05-05 06:31 | 38.33244 | -9.27570 | 13275 ft | 313 kts | 284° |
| 2026-05-05 06:31 | 38.33704 | -9.30239 | 12526 ft | 302 kts | 283° |
| 2026-05-05 06:31 | 38.34119 | -9.32813 | 11808 ft | 290 kts | 283° |
| 2026-05-05 06:31 | 38.34511 | -9.35274 | 11126 ft | 285 kts | 284° |
| 2026-05-05 06:32 | 38.35188 | -9.37620 | 10474 ft | 280 kts | 302° |
| 2026-05-05 06:32 | 38.36284 | -9.39610 | 10040 ft | 267 kts | 306° |
| 2026-05-05 06:32 | 38.37326 | -9.41536 | 9458 ft | 263 kts | 304° |
| 2026-05-05 06:32 | 38.38348 | -9.43468 | 9185 ft | 260 kts | 305° |
| 2026-05-05 06:33 | 38.39325 | -9.45321 | 9070 ft | 250 kts | 305° |
| 2026-05-05 06:33 | 38.40285 | -9.47120 | 8927 ft | 238 kts | 309° |
| 2026-05-05 06:33 | 38.41502 | -9.48496 | 8652 ft | 234 kts | 328° |
| 2026-05-05 06:33 | 38.42879 | -9.49602 | 8574 ft | 232 kts | 326° |
| 2026-05-05 06:34 | 38.44209 | -9.50722 | 8532 ft | 230 kts | 326° |
| 2026-05-05 06:34 | 38.45568 | -9.51774 | 8397 ft | 228 kts | 338° |
| 2026-05-05 06:34 | 38.47156 | -9.51988 | 8163 ft | 235 kts | 8° |
| 2026-05-05 06:34 | 38.48656 | -9.51129 | 8069 ft | 240 kts | 36° |
| 2026-05-05 06:35 | 38.49720 | -9.49498 | 7955 ft | 247 kts | 60° |
| 2026-05-05 06:35 | 38.50156 | -9.47361 | 7791 ft | 251 kts | 78° |
| 2026-05-05 06:35 | 38.50396 | -9.45141 | 7677 ft | 252 kts | 78° |
| 2026-05-05 06:35 | 38.50639 | -9.42924 | 7607 ft | 251 kts | 78° |
| 2026-05-05 06:36 | 38.50884 | -9.40726 | 7530 ft | 250 kts | 78° |
| 2026-05-05 06:36 | 38.51132 | -9.38529 | 7432 ft | 250 kts | 78° |
| 2026-05-05 06:36 | 38.51382 | -9.36340 | 7363 ft | 248 kts | 78° |
| 2026-05-05 06:36 | 38.51632 | -9.34184 | 7275 ft | 248 kts | 78° |
| 2026-05-05 06:37 | 38.51886 | -9.32010 | 7174 ft | 247 kts | 78° |
| 2026-05-05 06:37 | 38.52139 | -9.29840 | 7095 ft | 246 kts | 78° |
| 2026-05-05 06:37 | 38.52391 | -9.27678 | 7002 ft | 246 kts | 78° |
| 2026-05-05 06:37 | 38.52645 | -9.25515 | 6949 ft | 242 kts | 76° |
| 2026-05-05 06:38 | 38.53261 | -9.23618 | 6849 ft | 226 kts | 44° |
| 2026-05-05 06:38 | 38.54506 | -9.22539 | 6821 ft | 213 kts | 14° |
| 2026-05-05 06:38 | 38.55912 | -9.22255 | 6752 ft | 203 kts | 358° |
| 2026-05-05 06:38 | 38.57280 | -9.22560 | 6386 ft | 202 kts | 340° |
| 2026-05-05 06:39 | 38.58626 | -9.23182 | 5771 ft | 209 kts | 349° |
| 2026-05-05 06:39 | 38.60088 | -9.23020 | 5224 ft | 216 kts | 15° |
| 2026-05-05 06:39 | 38.61550 | -9.22396 | 4587 ft | 225 kts | 18° |
| 2026-05-05 06:39 | 38.63013 | -9.21667 | 3914 ft | 226 kts | 20° |
| 2026-05-05 06:40 | 38.64439 | -9.20907 | 3341 ft | 218 kts | 20° |
| 2026-05-05 06:40 | 38.65762 | -9.20196 | 3148 ft | 194 kts | 19° |
| 2026-05-05 06:40 | 38.66920 | -9.19577 | 3000 ft | 167 kts | 19° |
| 2026-05-05 06:40 | 38.67906 | -9.19051 | 2963 ft | 145 kts | 18° |
| 2026-05-05 06:41 | 38.68816 | -9.18569 | 2613 ft | 142 kts | 18° |
| 2026-05-05 06:41 | 38.69739 | -9.18079 | 2003 ft | 146 kts | 19° |
| 2026-05-05 06:41 | 38.70644 | -9.17595 | 1709 ft | 140 kts | 20° |
| 2026-05-05 06:41 | 38.71534 | -9.17120 | 1541 ft | 143 kts | 19° |
| 2026-05-05 06:42 | 38.72430 | -9.16640 | 1488 ft | 138 kts | 20° |
| 2026-05-05 06:42 | 38.73319 | -9.16146 | 1281 ft | 142 kts | 21° |
| 2026-05-05 06:42 | 38.74231 | -9.15663 | 1000 ft | 140 kts | 18° |
| 2026-05-05 06:42 | 38.75135 | -9.15181 | 694 ft | 143 kts | 20° |
| 2026-05-05 06:43 | 38.76065 | -9.14692 | 512 ft | 146 kts | 19° |
| 2026-05-05 06:43 | 38.77012 | -9.14187 | 366 ft | 146 kts | 21° |
| 2026-05-05 06:43 | 38.77857 | -9.13741 | 373 ft | 110 kts | 22° |
| 2026-05-05 06:43 | 38.78377 | -9.13462 | 373 ft | 39 kts | 22° |
| 2026-05-05 06:44 | 38.78524 | -9.13354 | 367 ft | 22 kts | 58° |
| 2026-05-05 06:44 | 38.78499 | -9.13244 | 372 ft | 18 kts | 147° |
| 2026-05-05 06:44 | 38.78406 | -9.13228 | 367 ft | 14 kts | 188° |
| 2026-05-05 06:44 | 38.78370 | -9.13240 | 368 ft | 3 kts | 198° |
| 2026-05-05 06:45 | 38.78349 | -9.13250 | 368 ft | 4 kts | 202° |
| 2026-05-05 06:45 | 38.78319 | -9.13265 | 366 ft | 5 kts | 202° |
| 2026-05-05 06:45 | 38.78282 | -9.13285 | 367 ft | 7 kts | 203° |
| 2026-05-05 06:45 | 38.78234 | -9.13311 | 365 ft | 8 kts | 202° |
| 2026-05-05 06:46 | 38.78176 | -9.13341 | 367 ft | 10 kts | 202° |
| 2026-05-05 06:46 | 38.78110 | -9.13376 | 370 ft | 11 kts | 202° |
| 2026-05-05 06:46 | 38.78034 | -9.13408 | 368 ft | 12 kts | 185° |
| 2026-05-05 06:46 | 38.77935 | -9.13393 | 363 ft | 17 kts | 169° |
| 2026-05-05 06:47 | 38.77805 | -9.13359 | 358 ft | 21 kts | 167° |
| 2026-05-05 06:47 | 38.77648 | -9.13322 | 350 ft | 24 kts | 174° |
| 2026-05-05 06:47 | 38.77532 | -9.13307 | 350 ft | 11 kts | 169° |
| 2026-05-05 06:47 | 38.77481 | -9.13279 | 354 ft | 5 kts | 112° |
| 2026-05-05 06:48 | 38.77481 | -9.13224 | 351 ft | 7 kts | 84° |
| 2026-05-05 06:48 | 38.77486 | -9.13187 | 348 ft | 2 kts | 79° |
| 2026-05-05 06:48 | 38.77487 | -9.13174 | 347 ft | 0 kts | 79° |
| 2026-05-05 06:49 | 38.77487 | -9.13175 | 347 ft | 0 kts | 79° |